Home > Products > Valid Products > TAF

000
FTUS44 KHGX 201728
TAFCLL
TAF
KCLL 201728Z 2018/2118 01008KT 6SM BR OVC007
     FM202000 02006KT P6SM BKN012
     FM210300 02004KT P6SM BKN008
     FM211000 VRB03KT 6SM BR BKN006=



000
FTUS44 KHGX 201728
TAFIAH
TAF
KIAH 201728Z 2018/2124 01006KT P6SM OVC008
     FM201900 02008KT P6SM BKN010
     FM210300 04004KT P6SM BKN008
     FM211000 VRB03KT P6SM BKN006
     FM211600 08004KT P6SM OVC015=



000
FTUS44 KHGX 201728
TAFHOU
TAF
KHOU 201728Z 2018/2118 04010KT P6SM OVC012
     FM210300 04004KT P6SM BKN009
     FM211000 VRB03KT P6SM BKN006=



000
FTUS44 KHGX 201728
TAFSGR
TAF
KSGR 201728Z 2018/2118 06008KT P6SM OVC010
     FM210300 04004KT P6SM BKN009
     FM211000 VRB03KT P6SM BKN006=



000
FTUS44 KHGX 201728
TAFLBX
TAF
KLBX 201728Z 2018/2118 01010KT P6SM OVC008
     FM201900 02008KT P6SM BKN010
     FM210300 04004KT P6SM BKN008
     FM211000 VRB03KT P6SM BKN006=



000
FTUS44 KHGX 201728
TAFUTS
TAF
KUTS 201728Z 2018/2118 36004KT P6SM OVC005
     FM202000 03003KT P6SM BKN010
     FM210300 00000KT P6SM OVC008
     FM211100 00000KT 6SM BR OVC005=



000
FTUS44 KHGX 201728
TAFGLS
TAF
KGLS 201728Z 2018/2118 02016KT P6SM OVC014
     FM210000 03011KT P6SM OVC008
     FM211100 04008KT 6SM BR OVC010=



000
FTUS44 KHGX 201728
TAFCXO
TAF
KCXO 201728Z 2018/2118 VRB05KT P6SM OVC008
     FM202000 03003KT P6SM BKN010
     FM210300 00000KT P6SM OVC008
     FM211100 00000KT 6SM BR OVC007=



000
FTUS44 KHGX 201728
TAFLBX
TAF
KLBX 201728Z 2018/2118 01010KT P6SM OVC008
     FM201900 02008KT P6SM BKN010
     FM210300 04004KT P6SM BKN008
     FM211000 VRB03KT P6SM BKN006=



000
FTUS44 KHGX 201728
TAFGLS
TAF
KGLS 201728Z 2018/2118 02016KT P6SM OVC014
     FM210000 03011KT P6SM OVC008
     FM211100 04008KT 6SM BR OVC010=



000
FTUS44 KHGX 201728
TAFIAH
TAF
KIAH 201728Z 2018/2124 01006KT P6SM OVC008
     FM201900 02008KT P6SM BKN010
     FM210300 04004KT P6SM BKN008
     FM211000 VRB03KT P6SM BKN006
     FM211600 08004KT P6SM OVC015=



000
FTUS44 KHGX 201728
TAFCXO
TAF
KCXO 201728Z 2018/2118 VRB05KT P6SM OVC008
     FM202000 03003KT P6SM BKN010
     FM210300 00000KT P6SM OVC008
     FM211100 00000KT 6SM BR OVC007=



000
FTUS44 KHGX 201728
TAFUTS
TAF
KUTS 201728Z 2018/2118 36004KT P6SM OVC005
     FM202000 03003KT P6SM BKN010
     FM210300 00000KT P6SM OVC008
     FM211100 00000KT 6SM BR OVC005=



000
FTUS44 KHGX 201728
TAFSGR
TAF
KSGR 201728Z 2018/2118 06008KT P6SM OVC010
     FM210300 04004KT P6SM BKN009
     FM211000 VRB03KT P6SM BKN006=



000
FTUS44 KHGX 201728
TAFCLL
TAF
KCLL 201728Z 2018/2118 01008KT 6SM BR OVC007
     FM202000 02006KT P6SM BKN012
     FM210300 02004KT P6SM BKN008
     FM211000 VRB03KT 6SM BR BKN006=



000
FTUS44 KHGX 201728
TAFHOU
TAF
KHOU 201728Z 2018/2118 04010KT P6SM OVC012
     FM210300 04004KT P6SM BKN009
     FM211000 VRB03KT P6SM BKN006=



000
FTUS44 KHGX 201628 AAB
TAFUTS
TAF AMD
KUTS 201628Z 2016/2112 06004KT P6SM OVC004
     FM201800 01004KT P6SM BKN010
     FM202000 03003KT P6SM SCT015 BKN025
     FM211000 VRB03KT P6SM SCT030=



000
FTUS44 KHGX 201628 AAB
TAFUTS
TAF AMD
KUTS 201628Z 2016/2112 06004KT P6SM OVC004
     FM201800 01004KT P6SM BKN010
     FM202000 03003KT P6SM SCT015 BKN025
     FM211000 VRB03KT P6SM SCT030=



000
FTUS44 KHGX 201505 AAA
TAFIAH
TAF AMD
KIAH 201505Z 2015/2118 01007KT P6SM OVC007
     FM201700 02008KT P6SM BKN015 OVC025
     FM202100 03005KT P6SM SCT025
     FM210200 05004KT P6SM FEW030
     FM211000 VRB03KT P6SM FEW035 SCT080 SCT250=



000
FTUS44 KHGX 201505 AAA
TAFHOU
TAF AMD
KHOU 201505Z 2015/2112 04007KT P6SM OVC008
     FM201700 01008KT P6SM BKN015 OVC025
     FM202000 03006KT P6SM FEW015 SCT025
     FM210400 VRB03KT P6SM FEW035 SCT080 SCT250=



000
FTUS44 KHGX 201505 AAA
TAFHOU
TAF AMD
KHOU 201505Z 2015/2112 04007KT P6SM OVC008
     FM201700 01008KT P6SM BKN015 OVC025
     FM202000 03006KT P6SM FEW015 SCT025
     FM210400 VRB03KT P6SM FEW035 SCT080 SCT250=



000
FTUS44 KHGX 201505 AAA
TAFIAH
TAF AMD
KIAH 201505Z 2015/2118 01007KT P6SM OVC007
     FM201700 02008KT P6SM BKN015 OVC025
     FM202100 03005KT P6SM SCT025
     FM210200 05004KT P6SM FEW030
     FM211000 VRB03KT P6SM FEW035 SCT080 SCT250=



000
FTUS44 KHGX 201309 AAA
TAFUTS
TAF AMD
KUTS 201309Z 2013/2112 VRB03KT 6SM BR OVC006
      TEMPO 2013/2015 2SM BR OVC003
     FM201500 01004KT P6SM SCT010 OVC015
     FM202000 03003KT P6SM SCT015 BKN025
     FM211000 VRB03KT P6SM SCT030=



000
FTUS44 KHGX 201309 AAA
TAFUTS
TAF AMD
KUTS 201309Z 2013/2112 VRB03KT 6SM BR OVC006
      TEMPO 2013/2015 2SM BR OVC003
     FM201500 01004KT P6SM SCT010 OVC015
     FM202000 03003KT P6SM SCT015 BKN025
     FM211000 VRB03KT P6SM SCT030=



000
FTUS44 KHGX 201137
TAFCXO
TAF
KCXO 201137Z 2012/2112 02006KT P6SM OVC008
     FM201500 36006KT P6SM BKN012 OVC025
     FM202100 02005KT P6SM FEW015 SCT025
     FM210700 VRB03KT P6SM FEW035 SCT080 SCT250=



000
FTUS44 KHGX 201137
TAFCLL
TAF
KCLL 201137Z 2012/2112 36008KT P6SM OVC009
     FM201500 02006KT P6SM BKN012 OVC020
     FM202300 VRB03KT P6SM BKN025
     FM211000 09003KT P6SM SCT025=



000
FTUS44 KHGX 201137
TAFLBX
TAF
KLBX 201137Z 2012/2112 01010KT P6SM OVC007
     FM201500 02009KT P6SM SCT007 BKN015
     FM202100 03007KT P6SM FEW020 SCT035
     FM210400 04007KT P6SM FEW035 SCT090=



000
FTUS44 KHGX 201137
TAFIAH
TAF
KIAH 201137Z 2012/2118 02011KT P6SM OVC007
     FM201500 02008KT P6SM BKN015 OVC025
     FM202100 03005KT P6SM SCT025
     FM210200 05004KT P6SM FEW030
     FM211000 VRB03KT P6SM FEW035 SCT080 SCT250=



000
FTUS44 KHGX 201137
TAFHOU
TAF
KHOU 201137Z 2012/2112 01009KT P6SM OVC007
     FM201500 01008KT P6SM BKN015 OVC025
     FM202000 03006KT P6SM FEW015 SCT025
     FM210400 VRB03KT P6SM FEW035 SCT080 SCT250=



000
FTUS44 KHGX 201137
TAFUTS
TAF
KUTS 201137Z 2012/2112 VRB03KT P6SM OVC006
     FM201500 01004KT P6SM SCT010 OVC015
     FM202000 03003KT P6SM SCT015 BKN025
     FM211000 VRB03KT P6SM SCT030=



000
FTUS44 KHGX 201137
TAFSGR
TAF
KSGR 201137Z 2012/2112 03009KT P6SM OVC009
     FM201500 03008KT P6SM BKN012 OVC020
     FM202100 04006KT P6SM SCT015 BKN025
     FM210400 VRB03KT P6SM FEW040 SCT250=



000
FTUS44 KHGX 201137
TAFGLS
TAF
KGLS 201137Z 2012/2112 01015KT P6SM OVC009
     FM201500 03014KT P6SM SCT007 OVC012
     FM202000 03010KT P6SM BKN015 OVC025
     FM210300 04011KT P6SM SCT035 SCT090=



000
FTUS44 KHGX 201137
TAFUTS
TAF
KUTS 201137Z 2012/2112 VRB03KT P6SM OVC006
     FM201500 01004KT P6SM SCT010 OVC015
     FM202000 03003KT P6SM SCT015 BKN025
     FM211000 VRB03KT P6SM SCT030=



000
FTUS44 KHGX 201137
TAFGLS
TAF
KGLS 201137Z 2012/2112 01015KT P6SM OVC009
     FM201500 03014KT P6SM SCT007 OVC012
     FM202000 03010KT P6SM BKN015 OVC025
     FM210300 04011KT P6SM SCT035 SCT090=



000
FTUS44 KHGX 201137
TAFLBX
TAF
KLBX 201137Z 2012/2112 01010KT P6SM OVC007
     FM201500 02009KT P6SM SCT007 BKN015
     FM202100 03007KT P6SM FEW020 SCT035
     FM210400 04007KT P6SM FEW035 SCT090=



000
FTUS44 KHGX 201137
TAFHOU
TAF
KHOU 201137Z 2012/2112 01009KT P6SM OVC007
     FM201500 01008KT P6SM BKN015 OVC025
     FM202000 03006KT P6SM FEW015 SCT025
     FM210400 VRB03KT P6SM FEW035 SCT080 SCT250=



000
FTUS44 KHGX 201137
TAFSGR
TAF
KSGR 201137Z 2012/2112 03009KT P6SM OVC009
     FM201500 03008KT P6SM BKN012 OVC020
     FM202100 04006KT P6SM SCT015 BKN025
     FM210400 VRB03KT P6SM FEW040 SCT250=



000
FTUS44 KHGX 201137
TAFCLL
TAF
KCLL 201137Z 2012/2112 36008KT P6SM OVC009
     FM201500 02006KT P6SM BKN012 OVC020
     FM202300 VRB03KT P6SM BKN025
     FM211000 09003KT P6SM SCT025=



000
FTUS44 KHGX 201137
TAFCXO
TAF
KCXO 201137Z 2012/2112 02006KT P6SM OVC008
     FM201500 36006KT P6SM BKN012 OVC025
     FM202100 02005KT P6SM FEW015 SCT025
     FM210700 VRB03KT P6SM FEW035 SCT080 SCT250=



000
FTUS44 KHGX 201137
TAFIAH
TAF
KIAH 201137Z 2012/2118 02011KT P6SM OVC007
     FM201500 02008KT P6SM BKN015 OVC025
     FM202100 03005KT P6SM SCT025
     FM210200 05004KT P6SM FEW030
     FM211000 VRB03KT P6SM FEW035 SCT080 SCT250=



000
FTUS44 KHGX 200908 AAC
TAFHOU
TAF AMD
KHOU 200908Z 2009/2106 36009KT P6SM BKN005 OVC010
      TEMPO 2009/2013 OVC006
     FM201500 01008KT P6SM BKN015 OVC025
     FM202000 02006KT P6SM BKN015 BKN025
     FM202300 03005KT P6SM SCT025 SCT035
     FM210400 VRB03KT P6SM SKC=



000
FTUS44 KHGX 200908 AAC
TAFHOU
TAF AMD
KHOU 200908Z 2009/2106 36009KT P6SM BKN005 OVC010
      TEMPO 2009/2013 OVC006
     FM201500 01008KT P6SM BKN015 OVC025
     FM202000 02006KT P6SM BKN015 BKN025
     FM202300 03005KT P6SM SCT025 SCT035
     FM210400 VRB03KT P6SM SKC=



000
FTUS44 KHGX 200907 AAA
TAFCLL
TAF AMD
KCLL 200907Z 2009/2106 01006KT P6SM SCT008 OVC015
     FM201500 01006KT P6SM BKN012 OVC025
     FM202200 VRB04KT P6SM BKN025
     FM210500 VRB03KT P6SM SCT030=



000
FTUS44 KHGX 200907 AAA
TAFCLL
TAF AMD
KCLL 200907Z 2009/2106 01006KT P6SM SCT008 OVC015
     FM201500 01006KT P6SM BKN012 OVC025
     FM202200 VRB04KT P6SM BKN025
     FM210500 VRB03KT P6SM SCT030=



000
FTUS44 KHGX 200906 AAA
TAFGLS
TAF AMD
KGLS 200906Z 2009/2106 01019G25KT P6SM OVC007
     FM201400 02014KT P6SM SCT007 OVC015
     FM202000 03012KT P6SM BKN015 OVC025
     FM202300 04011KT P6SM SCT035 SCT100=



000
FTUS44 KHGX 200906 AAA
TAFGLS
TAF AMD
KGLS 200906Z 2009/2106 01019G25KT P6SM OVC007
     FM201400 02014KT P6SM SCT007 OVC015
     FM202000 03012KT P6SM BKN015 OVC025
     FM202300 04011KT P6SM SCT035 SCT100=



000
FTUS44 KHGX 200900 AAA
TAFIAH
TAF AMD
KIAH 200900Z 2009/2112 36009KT P6SM OVC005
     FM201500 01008KT P6SM BKN015 OVC025
     FM202100 02005KT P6SM SCT015 SCT035
     FM210000 VRB03KT P6SM SCT035
     FM210300 VRB03KT P6SM SKC
     FM210900 VRB03KT P6SM FEW025 SCT080 BKN250=



000
FTUS44 KHGX 200900 AAB
TAFHOU
TAF AMD
KHOU 200900Z 2009/2106 36009KT P6SM BKN005 OVC010
     FM201500 01008KT P6SM BKN015 OVC025
     FM202000 02006KT P6SM BKN015 BKN025
     FM202300 03005KT P6SM SCT025 SCT035
     FM210400 VRB03KT P6SM SKC=



000
FTUS44 KHGX 200900 AAA
TAFIAH
TAF AMD
KIAH 200900Z 2009/2112 36009KT P6SM OVC005
     FM201500 01008KT P6SM BKN015 OVC025
     FM202100 02005KT P6SM SCT015 SCT035
     FM210000 VRB03KT P6SM SCT035
     FM210300 VRB03KT P6SM SKC
     FM210900 VRB03KT P6SM FEW025 SCT080 BKN250=



000
FTUS44 KHGX 200900 AAB
TAFHOU
TAF AMD
KHOU 200900Z 2009/2106 36009KT P6SM BKN005 OVC010
     FM201500 01008KT P6SM BKN015 OVC025
     FM202000 02006KT P6SM BKN015 BKN025
     FM202300 03005KT P6SM SCT025 SCT035
     FM210400 VRB03KT P6SM SKC=



000
FTUS44 KHGX 200816 AAA
TAFSGR
TAF AMD
KSGR 200816Z 2008/2106 36008KT P6SM OVC010
     FM201000 36005KT 6SM BR BKN005 OVC010
     FM201500 01008KT P6SM BKN015 OVC025
     FM202100 02006KT P6SM BKN015 BKN025
     FM202300 03005KT P6SM SCT025 SCT035
     FM210400 VRB03KT P6SM SKC=



000
FTUS44 KHGX 200816 AAA
TAFSGR
TAF AMD
KSGR 200816Z 2008/2106 36008KT P6SM OVC010
     FM201000 36005KT 6SM BR BKN005 OVC010
     FM201500 01008KT P6SM BKN015 OVC025
     FM202100 02006KT P6SM BKN015 BKN025
     FM202300 03005KT P6SM SCT025 SCT035
     FM210400 VRB03KT P6SM SKC=



000
FTUS44 KHGX 200815 AAA
TAFHOU
TAF AMD
KHOU 200815Z 2008/2106 36009KT P6SM BKN005 OVC010
     FM201500 01008KT P6SM BKN015 OVC025
     FM202000 02006KT P6SM BKN015 BKN025
     FM202300 03005KT P6SM SCT025 SCT035
     FM210400 VRB03KT P6SM SKC=



000
FTUS44 KHGX 200815 AAA
TAFHOU
TAF AMD
KHOU 200815Z 2008/2106 36009KT P6SM BKN005 OVC010
     FM201500 01008KT P6SM BKN015 OVC025
     FM202000 02006KT P6SM BKN015 BKN025
     FM202300 03005KT P6SM SCT025 SCT035
     FM210400 VRB03KT P6SM SKC=



000
FTUS44 KHGX 200525
TAFGLS
TAF
KGLS 200525Z 2006/2106 01015KT P6SM OVC007
     FM201400 01012KT P6SM SCT007 OVC015
     FM202000 02010KT P6SM BKN015 OVC025
     FM202300 03009KT P6SM SCT035 SCT100=



000
FTUS44 KHGX 200525
TAFSGR
TAF
KSGR 200525Z 2006/2106 01010KT 5SM BR BKN008 OVC012
     FM200900 36005KT 3SM BR OVC008
     FM201500 01008KT P6SM BKN015 OVC025
     FM202100 02006KT P6SM BKN015 BKN025
     FM202300 03005KT P6SM SCT025 SCT035
     FM210400 VRB03KT P6SM SKC=



000
FTUS44 KHGX 200525
TAFCLL
TAF
KCLL 200525Z 2006/2106 36010KT 5SM BR OVC009
     FM201500 01006KT P6SM BKN012 OVC025
     FM202200 VRB04KT P6SM BKN025
     FM210500 VRB03KT P6SM SCT030=



000
FTUS44 KHGX 200525
TAFUTS
TAF
KUTS 200525Z 2006/2106 VRB05KT 3SM BR BKN004 OVC008
     FM201500 01004KT P6SM OVC012
     FM201800 02005KT P6SM BKN015 OVC025
     FM202300 VRB03KT P6SM BKN025
     FM210400 VRB03KT P6SM SCT030=



000
FTUS44 KHGX 200525
TAFLBX
TAF
KLBX 200525Z 2006/2106 36008KT P6SM OVC007
     FM200900 01006KT 5SM BR OVC007
     FM201500 02007KT P6SM SCT007 OVC015
     FM202100 02007KT P6SM BKN015 OVC025
     FM210200 VRB03KT P6SM SCT035 SCT100=



000
FTUS44 KHGX 200525
TAFLBX
TAF
KLBX 200525Z 2006/2106 36008KT P6SM OVC007
     FM200900 01006KT 5SM BR OVC007
     FM201500 02007KT P6SM SCT007 OVC015
     FM202100 02007KT P6SM BKN015 OVC025
     FM210200 VRB03KT P6SM SCT035 SCT100=



000
FTUS44 KHGX 200525
TAFSGR
TAF
KSGR 200525Z 2006/2106 01010KT 5SM BR BKN008 OVC012
     FM200900 36005KT 3SM BR OVC008
     FM201500 01008KT P6SM BKN015 OVC025
     FM202100 02006KT P6SM BKN015 BKN025
     FM202300 03005KT P6SM SCT025 SCT035
     FM210400 VRB03KT P6SM SKC=



000
FTUS44 KHGX 200525
TAFIAH
TAF
KIAH 200525Z 2006/2112 01008KT P6SM OVC008
     FM201500 01008KT P6SM BKN015 OVC025
     FM202100 02005KT P6SM SCT015 SCT035
     FM210000 VRB03KT P6SM SCT035
     FM210300 VRB03KT P6SM SKC
     FM210900 VRB03KT P6SM FEW025 SCT080 BKN250=



000
FTUS44 KHGX 200525
TAFIAH
TAF
KIAH 200525Z 2006/2112 01008KT P6SM OVC008
     FM201500 01008KT P6SM BKN015 OVC025
     FM202100 02005KT P6SM SCT015 SCT035
     FM210000 VRB03KT P6SM SCT035
     FM210300 VRB03KT P6SM SKC
     FM210900 VRB03KT P6SM FEW025 SCT080 BKN250=



000
FTUS44 KHGX 200525
TAFCXO
TAF
KCXO 200525Z 2006/2106 36009KT P6SM OVC007
     FM201000 35004KT 3SM BR BKN008 OVC012
     FM201500 36006KT P6SM BKN015 OVC025
     FM202200 02005KT P6SM SCT015 SCT035
     FM210100 VRB03KT P6SM SCT035=



000
FTUS44 KHGX 200525
TAFUTS
TAF
KUTS 200525Z 2006/2106 VRB05KT 3SM BR BKN004 OVC008
     FM201500 01004KT P6SM OVC012
     FM201800 02005KT P6SM BKN015 OVC025
     FM202300 VRB03KT P6SM BKN025
     FM210400 VRB03KT P6SM SCT030=



000
FTUS44 KHGX 200525
TAFHOU
TAF
KHOU 200525Z 2006/2106 01012KT 4SM BR FEW008 OVC015
     FM200800 01011KT 6SM BR BKN008 OVC012
     FM201500 01008KT P6SM BKN015 OVC025
     FM202000 02006KT P6SM BKN015 BKN025
     FM202300 03005KT P6SM SCT025 SCT035
     FM210400 VRB03KT P6SM SKC=



000
FTUS44 KHGX 200525
TAFCLL
TAF
KCLL 200525Z 2006/2106 36010KT 5SM BR OVC009
     FM201500 01006KT P6SM BKN012 OVC025
     FM202200 VRB04KT P6SM BKN025
     FM210500 VRB03KT P6SM SCT030=



000
FTUS44 KHGX 200525
TAFHOU
TAF
KHOU 200525Z 2006/2106 01012KT 4SM BR FEW008 OVC015
     FM200800 01011KT 6SM BR BKN008 OVC012
     FM201500 01008KT P6SM BKN015 OVC025
     FM202000 02006KT P6SM BKN015 BKN025
     FM202300 03005KT P6SM SCT025 SCT035
     FM210400 VRB03KT P6SM SKC=



000
FTUS44 KHGX 200525
TAFCXO
TAF
KCXO 200525Z 2006/2106 36009KT P6SM OVC007
     FM201000 35004KT 3SM BR BKN008 OVC012
     FM201500 36006KT P6SM BKN015 OVC025
     FM202200 02005KT P6SM SCT015 SCT035
     FM210100 VRB03KT P6SM SCT035=



000
FTUS44 KHGX 200525
TAFGLS
TAF
KGLS 200525Z 2006/2106 01015KT P6SM OVC007
     FM201400 01012KT P6SM SCT007 OVC015
     FM202000 02010KT P6SM BKN015 OVC025
     FM202300 03009KT P6SM SCT035 SCT100=



000
FTUS44 KHGX 200311 AAB
TAFHOU
TAF AMD
KHOU 200311Z 2003/2024 01012KT 4SM BR OVC007
     FM201500 01008KT P6SM BKN015 OVC025
     FM202200 02005KT P6SM BKN015 BKN025=



000
FTUS44 KHGX 200258 AAA
TAFHOU
TAF AMD
KHOU 200258Z 2003/2024 01012KT P6SM OVC007
     FM201500 01008KT P6SM BKN015 OVC025
     FM202200 02005KT P6SM BKN015 BKN025=



000
FTUS44 KHGX 200258 AAA
TAFHOU
TAF AMD
KHOU 200258Z 2003/2024 01012KT P6SM OVC007
     FM201500 01008KT P6SM BKN015 OVC025
     FM202200 02005KT P6SM BKN015 BKN025=



000
FTUS44 KHGX 200258 AAA
TAFIAH
TAF AMD
KIAH 200258Z 2003/2106 01010KT P6SM OVC008
     FM201500 01008KT P6SM BKN015 OVC025
     FM202200 02005KT P6SM BKN015 BKN025
     FM210100 VRB03KT P6SM SCT015=



000
FTUS44 KHGX 200258 AAA
TAFIAH
TAF AMD
KIAH 200258Z 2003/2106 01010KT P6SM OVC008
     FM201500 01008KT P6SM BKN015 OVC025
     FM202200 02005KT P6SM BKN015 BKN025
     FM210100 VRB03KT P6SM SCT015=



000
FTUS44 KHGX 200251 AAA
TAFSGR
TAF AMD
KSGR 200251Z 2003/2024 01010KT P6SM BKN008 OVC012
     FM200900 36005KT 3SM BR OVC008
     FM201500 01008KT P6SM BKN015 OVC025
     FM202200 02005KT P6SM BKN015 BKN025=



000
FTUS44 KHGX 200251 AAA
TAFSGR
TAF AMD
KSGR 200251Z 2003/2024 01010KT P6SM BKN008 OVC012
     FM200900 36005KT 3SM BR OVC008
     FM201500 01008KT P6SM BKN015 OVC025
     FM202200 02005KT P6SM BKN015 BKN025=



000
FTUS44 KHGX 200137 AAA
TAFCLL
TAF AMD
KCLL 200137Z 2002/2024 36010KT 4SM BR OVC007
     FM201500 01006KT P6SM BKN012 OVC025
     FM202200 VRB04KT P6SM BKN025=



000
FTUS44 KHGX 200137 AAA
TAFCLL
TAF AMD
KCLL 200137Z 2002/2024 36010KT 4SM BR OVC007
     FM201500 01006KT P6SM BKN012 OVC025
     FM202200 VRB04KT P6SM BKN025=



000
FTUS44 KHGX 200137 AAA
TAFCLL
TAF AMD
KCLL 200137Z 2002/2024 36010KT 4SM BR OVC007
     FM201500 01006KT P6SM BKN012 OVC025
     FM202200 VRB04KT P6SM BKN025=



000
FTUS44 KHGX 200106 AAA
TAFCXO
TAF AMD
KCXO 200106Z 2001/2024 36009KT P6SM OVC008
     FM201000 35004KT 3SM BR BKN008 OVC012
     FM201500 36006KT P6SM BKN015 OVC025
     FM202200 02005KT P6SM BKN015 BKN025=



000
FTUS44 KHGX 200106 AAA
TAFUTS
TAF AMD
KUTS 200106Z 2001/2024 VRB05KT 3SM BR BKN004 OVC008
     FM201500 01004KT P6SM OVC012
     FM201800 02005KT P6SM BKN015 OVC025
     FM202300 VRB03KT P6SM BKN025=



000
FTUS44 KHGX 200106 AAA
TAFUTS
TAF AMD
KUTS 200106Z 2001/2024 VRB05KT 3SM BR BKN004 OVC008
     FM201500 01004KT P6SM OVC012
     FM201800 02005KT P6SM BKN015 OVC025
     FM202300 VRB03KT P6SM BKN025=



000
FTUS44 KHGX 200106 AAA
TAFCXO
TAF AMD
KCXO 200106Z 2001/2024 36009KT P6SM OVC008
     FM201000 35004KT 3SM BR BKN008 OVC012
     FM201500 36006KT P6SM BKN015 OVC025
     FM202200 02005KT P6SM BKN015 BKN025=



000
FTUS44 KHGX 192346 CCA
TAFHOU
TAF COR
KHOU 192346Z 2000/2024 02010KT P6SM BKN007 OVC015
     FM200900 36005KT 5SM BR OVC008
     FM201500 01008KT P6SM BKN015 OVC025
     FM202200 02005KT P6SM BKN015 BKN025=



000
FTUS44 KHGX 192346 CCA
TAFHOU
TAF COR
KHOU 192346Z 2000/2024 02010KT P6SM BKN007 OVC015
     FM200900 36005KT 5SM BR OVC008
     FM201500 01008KT P6SM BKN015 OVC025
     FM202200 02005KT P6SM BKN015 BKN025=



000
FTUS44 KHGX 192337
TAFUTS
TAF
KUTS 192337Z 2000/2024 VRB05KT P6SM OVC008
     FM201500 01004KT P6SM OVC012
     FM201800 02005KT P6SM BKN015 OVC025
     FM202300 VRB03KT P6SM BKN025=



000
FTUS44 KHGX 192337
TAFCXO
TAF
KCXO 192337Z 2000/2024 36009KT P6SM SCT008 OVC012
     FM200200 36007KT P6SM OVC008
     FM201000 35004KT 3SM BR BKN008 OVC012
     FM201500 36006KT P6SM BKN015 OVC025
     FM202200 02005KT P6SM BKN015 BKN025=



000
FTUS44 KHGX 192337
TAFHOU
TAF
KHOU 192337Z 2000/2024 02010KT P6SM SCT008 BKN020 OVC035
     FM200100 01007KT P6SM SCT008 OVC015
     FM200900 36005KT 5SM BR OVC008
     FM201500 01008KT P6SM BKN015 OVC025
     FM202200 02005KT P6SM BKN015 BKN025=



000
FTUS44 KHGX 192337
TAFIAH
TAF
KIAH 192337Z 2000/2106 36011KT P6SM OVC007
     FM200900 36005KT 5SM BR OVC008
     FM201500 01008KT P6SM BKN015 OVC025
     FM202200 02005KT P6SM BKN015 BKN025
     FM210100 VRB03KT P6SM SCT015=



000
FTUS44 KHGX 192337
TAFLBX
TAF
KLBX 192337Z 2000/2024 01012KT P6SM BKN007 OVC040
     FM200300 36008KT P6SM OVC007
     FM200900 01006KT 5SM BR OVC007
     FM201500 02007KT P6SM SCT007 OVC015
     FM202100 02007KT P6SM BKN015 OVC025=



000
FTUS44 KHGX 192337
TAFGLS
TAF
KGLS 192337Z 2000/2024 01014KT 6SM BR VCSH OVC006
     FM200100 01015KT P6SM OVC007
     FM201400 01012KT P6SM SCT007 OVC015
     FM202200 02010KT P6SM BKN015 OVC025=



000
FTUS44 KHGX 192337
TAFCLL
TAF
KCLL 192337Z 2000/2024 35012KT P6SM BKN007 OVC012
     FM200100 36010KT P6SM OVC007
     FM201500 01006KT P6SM BKN012 OVC025
     FM202200 VRB04KT P6SM BKN025=



000
FTUS44 KHGX 192337
TAFSGR
TAF
KSGR 192337Z 2000/2024 36009KT P6SM SCT008 BKN015 OVC030
     FM200100 01006KT P6SM SCT008 OVC015
     FM200900 36005KT 3SM BR OVC008
     FM201500 01008KT P6SM BKN015 OVC025
     FM202200 02005KT P6SM BKN015 BKN025=



000
FTUS44 KHGX 192337
TAFSGR
TAF
KSGR 192337Z 2000/2024 36009KT P6SM SCT008 BKN015 OVC030
     FM200100 01006KT P6SM SCT008 OVC015
     FM200900 36005KT 3SM BR OVC008
     FM201500 01008KT P6SM BKN015 OVC025
     FM202200 02005KT P6SM BKN015 BKN025=



000
FTUS44 KHGX 192337
TAFIAH
TAF
KIAH 192337Z 2000/2106 36011KT P6SM OVC007
     FM200900 36005KT 5SM BR OVC008
     FM201500 01008KT P6SM BKN015 OVC025
     FM202200 02005KT P6SM BKN015 BKN025
     FM210100 VRB03KT P6SM SCT015=



000
FTUS44 KHGX 192337
TAFGLS
TAF
KGLS 192337Z 2000/2024 01014KT 6SM BR VCSH OVC006
     FM200100 01015KT P6SM OVC007
     FM201400 01012KT P6SM SCT007 OVC015
     FM202200 02010KT P6SM BKN015 OVC025=



000
FTUS44 KHGX 192337
TAFLBX
TAF
KLBX 192337Z 2000/2024 01012KT P6SM BKN007 OVC040
     FM200300 36008KT P6SM OVC007
     FM200900 01006KT 5SM BR OVC007
     FM201500 02007KT P6SM SCT007 OVC015
     FM202100 02007KT P6SM BKN015 OVC025=



000
FTUS44 KHGX 192337
TAFUTS
TAF
KUTS 192337Z 2000/2024 VRB05KT P6SM OVC008
     FM201500 01004KT P6SM OVC012
     FM201800 02005KT P6SM BKN015 OVC025
     FM202300 VRB03KT P6SM BKN025=



000
FTUS44 KHGX 192337
TAFCXO
TAF
KCXO 192337Z 2000/2024 36009KT P6SM SCT008 OVC012
     FM200200 36007KT P6SM OVC008
     FM201000 35004KT 3SM BR BKN008 OVC012
     FM201500 36006KT P6SM BKN015 OVC025
     FM202200 02005KT P6SM BKN015 BKN025=



000
FTUS44 KHGX 192337
TAFHOU
TAF
KHOU 192337Z 2000/2024 02010KT P6SM SCT008 BKN020 OVC035
     FM200100 01007KT P6SM SCT008 OVC015
     FM200900 36005KT 5SM BR OVC008
     FM201500 01008KT P6SM BKN015 OVC025
     FM202200 02005KT P6SM BKN015 BKN025=



000
FTUS44 KHGX 192337
TAFCLL
TAF
KCLL 192337Z 2000/2024 35012KT P6SM BKN007 OVC012
     FM200100 36010KT P6SM OVC007
     FM201500 01006KT P6SM BKN012 OVC025
     FM202200 VRB04KT P6SM BKN025=



000
FTUS44 KHGX 192102 AAB
TAFGLS
TAF AMD
KGLS 192102Z 1921/2018 01016G24KT 2SM -RA BR BKN006 OVC013
     FM192300 02013KT 4SM BR VCSH BKN007 OVC015
     FM200300 02016KT P6SM VCSH BKN008 OVC020=



000
FTUS44 KHGX 192102 AAB
TAFGLS
TAF AMD
KGLS 192102Z 1921/2018 01016G24KT 2SM -RA BR BKN006 OVC013
     FM192300 02013KT 4SM BR VCSH BKN007 OVC015
     FM200300 02016KT P6SM VCSH BKN008 OVC020=



000
FTUS44 KHGX 192101 AAA
TAFLBX
TAF AMD
KLBX 192101Z 1921/2018 01014KT P6SM -RA BKN007 OVC011
      TEMPO 1921/1923 SCT015 BKN020
     FM192300 03012KT P6SM VCSH BKN007 OVC015
     FM200300 36008KT P6SM OVC007=



000
FTUS44 KHGX 192101 AAA
TAFLBX
TAF AMD
KLBX 192101Z 1921/2018 01014KT P6SM -RA BKN007 OVC011
      TEMPO 1921/1923 SCT015 BKN020
     FM192300 03012KT P6SM VCSH BKN007 OVC015
     FM200300 36008KT P6SM OVC007=



000
FTUS44 KHGX 192059 AAA
TAFSGR
TAF AMD
KSGR 192059Z 1921/2018 04011KT P6SM VCSH BKN011 BKN021 OVC090
      TEMPO 1921/1923 SCT015 BKN020
     FM200300 36008KT P6SM BKN012 OVC020=



000
FTUS44 KHGX 192059 AAA
TAFSGR
TAF AMD
KSGR 192059Z 1921/2018 04011KT P6SM VCSH BKN011 BKN021 OVC090
      TEMPO 1921/1923 SCT015 BKN020
     FM200300 36008KT P6SM BKN012 OVC020=



000
FTUS44 KHGX 192058 AAA
TAFUTS
TAF AMD
KUTS 192058Z 1921/2018 VRB05KT P6SM OVC009
     FM201000 01004KT 5SM BR SCT010 BKN030
     FM201400 36002KT P6SM BKN030=



000
FTUS44 KHGX 192058 AAA
TAFCXO
TAF AMD
KCXO 192058Z 1921/2018 06006KT 4SM -RA BR BKN009 BKN026 OVC040
      TEMPO 1921/1923 SCT025 BKN040
     FM192300 01007KT P6SM BKN015
     FM200900 35004KT 5SM BR SCT010 BKN030
     FM201400 35004KT P6SM BKN030=



000
FTUS44 KHGX 192058 AAA
TAFCXO
TAF AMD
KCXO 192058Z 1921/2018 06006KT 4SM -RA BR BKN009 BKN026 OVC040
      TEMPO 1921/1923 SCT025 BKN040
     FM192300 01007KT P6SM BKN015
     FM200900 35004KT 5SM BR SCT010 BKN030
     FM201400 35004KT P6SM BKN030=



000
FTUS44 KHGX 192058 AAA
TAFUTS
TAF AMD
KUTS 192058Z 1921/2018 VRB05KT P6SM OVC009
     FM201000 01004KT 5SM BR SCT010 BKN030
     FM201400 36002KT P6SM BKN030=



000
FTUS44 KHGX 192055 AAB
TAFHOU
TAF AMD
KHOU 192055Z 1921/2018 01011KT 5SM -RA BR BKN009 BKN012 OVC050
      TEMPO 1922/1924 SCT020 BKN050
     FM200000 36008KT P6SM BKN015 OVC020=



000
FTUS44 KHGX 192055 AAB
TAFHOU
TAF AMD
KHOU 192055Z 1921/2018 01011KT 5SM -RA BR BKN009 BKN012 OVC050
      TEMPO 1922/1924 SCT020 BKN050
     FM200000 36008KT P6SM BKN015 OVC020=



000
FTUS44 KHGX 192054 AAA
TAFIAH
TAF AMD
KIAH 192054Z 1921/2024 03012KT P6SM -RA BKN008 OVC022
      TEMPO 1921/1922 SCT010 BKN025
     FM192200 02012KT P6SM SCT010 BKN025
     FM200000 01007KT P6SM BKN015
     FM201800 02007KT P6SM SCT025 BKN050=



000
FTUS44 KHGX 192054 AAA
TAFIAH
TAF AMD
KIAH 192054Z 1921/2024 03012KT P6SM -RA BKN008 OVC022
      TEMPO 1921/1922 SCT010 BKN025
     FM192200 02012KT P6SM SCT010 BKN025
     FM200000 01007KT P6SM BKN015
     FM201800 02007KT P6SM SCT025 BKN050=



000
FTUS44 KHGX 191822 AAA
TAFGLS
TAF AMD
KGLS 191822Z 1918/2018 03017KT 5SM -RA BR SCT007 BKN016 OVC022
      TEMPO 1918/1920 1SM +TSRA OVC007CB
     FM192100 02013KT 4SM BR VCSH BKN007 OVC015
     FM200300 02016KT P6SM VCSH BKN008 OVC020=



000
FTUS44 KHGX 191821 AAA
TAFHOU
TAF AMD
KHOU 191821Z 1918/2018 01013KT 6SM -RA BR BKN006 BKN013 OVC030
      TEMPO 1918/1920 2SM TSRA SCT007 BKN015CB
     FM192000 01010KT P6SM VCSH SCT015 BKN020
     FM200000 36008KT P6SM BKN015 OVC020=



000
FTUS44 KHGX 191821 AAA
TAFHOU
TAF AMD
KHOU 191821Z 1918/2018 01013KT 6SM -RA BR BKN006 BKN013 OVC030
      TEMPO 1918/1920 2SM TSRA SCT007 BKN015CB
     FM192000 01010KT P6SM VCSH SCT015 BKN020
     FM200000 36008KT P6SM BKN015 OVC020=



000
FTUS44 KHGX 191730
TAFHOU
TAF
KHOU 191730Z 1918/2018 03013KT 6SM -RA BR BKN006 BKN013 OVC030
      TEMPO 1918/1920 2SM TSRA SCT007 BKN015CB
     FM192000 01010KT P6SM VCSH SCT015 BKN020
     FM200000 36008KT P6SM BKN015 OVC020=



000
FTUS44 KHGX 191730
TAFUTS
TAF
KUTS 191730Z 1918/2018 VRB05KT P6SM VCSH SCT008 OVC035
     FM192000 01007KT P6SM SCT008 BKN018
     FM201000 01004KT 5SM BR SCT010 BKN030
     FM201400 36002KT P6SM BKN030=



000
FTUS44 KHGX 191730
TAFCLL
TAF
KCLL 191730Z 1918/2018 07011KT P6SM OVC060
     FM192000 02009KT P6SM SCT008 OVC015
     FM201200 01006KT P6SM BKN030=



000
FTUS44 KHGX 191730
TAFIAH
TAF
KIAH 191730Z 1918/2024 02015KT 6SM -RA BR BKN007 OVC040
      TEMPO 1918/1920 3SM TSRA SCT007 BKN025CB
     FM192000 02010KT P6SM SCT010 BKN025
     FM200000 01007KT P6SM BKN015
     FM201800 02007KT P6SM SCT025 BKN050=



000
FTUS44 KHGX 191730
TAFSGR
TAF
KSGR 191730Z 1918/2018 02014KT 6SM -RA BR OVC007
      TEMPO 1918/1921 3SM TSRA SCT007 BKN010CB
     FM192100 01008KT P6SM VCSH SCT015 BKN020
     FM200300 36008KT P6SM BKN012 OVC020=



000
FTUS44 KHGX 191730
TAFLBX
TAF
KLBX 191730Z 1918/2018 03012KT P6SM -RA BKN010 OVC035
      TEMPO 1918/1920 3SM TSRA OVC008CB
     FM192100 03012KT 4SM BR VCSH BKN007 OVC015
     FM200300 36008KT P6SM OVC007=



000
FTUS44 KHGX 191730
TAFCXO
TAF
KCXO 191730Z 1918/2018 01009G16KT P6SM -RA OVC009
      TEMPO 1918/1920 P6SM NSW SCT009 BKN015
     FM192000 01007KT P6SM SCT008 BKN018
     FM200900 35004KT 5SM BR SCT010 BKN030
     FM201400 35004KT P6SM BKN030=



000
FTUS44 KHGX 191730
TAFGLS
TAF
KGLS 191730Z 1918/2018 03017KT 5SM -RA BR SCT007 BKN016 OVC022
      TEMPO 1918/1920 5SM -TSRA OVC007CB
     FM192100 02013KT 4SM BR VCSH BKN007 OVC015
     FM200300 02016KT P6SM VCSH BKN008 OVC020=



000
FTUS44 KHGX 191730
TAFSGR
TAF
KSGR 191730Z 1918/2018 02014KT 6SM -RA BR OVC007
      TEMPO 1918/1921 3SM TSRA SCT007 BKN010CB
     FM192100 01008KT P6SM VCSH SCT015 BKN020
     FM200300 36008KT P6SM BKN012 OVC020=



000
FTUS44 KHGX 191730
TAFIAH
TAF
KIAH 191730Z 1918/2024 02015KT 6SM -RA BR BKN007 OVC040
      TEMPO 1918/1920 3SM TSRA SCT007 BKN025CB
     FM192000 02010KT P6SM SCT010 BKN025
     FM200000 01007KT P6SM BKN015
     FM201800 02007KT P6SM SCT025 BKN050=



000
FTUS44 KHGX 191730
TAFHOU
TAF
KHOU 191730Z 1918/2018 03013KT 6SM -RA BR BKN006 BKN013 OVC030
      TEMPO 1918/1920 2SM TSRA SCT007 BKN015CB
     FM192000 01010KT P6SM VCSH SCT015 BKN020
     FM200000 36008KT P6SM BKN015 OVC020=



000
FTUS44 KHGX 191730
TAFUTS
TAF
KUTS 191730Z 1918/2018 VRB05KT P6SM VCSH SCT008 OVC035
     FM192000 01007KT P6SM SCT008 BKN018
     FM201000 01004KT 5SM BR SCT010 BKN030
     FM201400 36002KT P6SM BKN030=



000
FTUS44 KHGX 191730
TAFLBX
TAF
KLBX 191730Z 1918/2018 03012KT P6SM -RA BKN010 OVC035
      TEMPO 1918/1920 3SM TSRA OVC008CB
     FM192100 03012KT 4SM BR VCSH BKN007 OVC015
     FM200300 36008KT P6SM OVC007=



000
FTUS44 KHGX 191730
TAFCXO
TAF
KCXO 191730Z 1918/2018 01009G16KT P6SM -RA OVC009
      TEMPO 1918/1920 P6SM NSW SCT009 BKN015
     FM192000 01007KT P6SM SCT008 BKN018
     FM200900 35004KT 5SM BR SCT010 BKN030
     FM201400 35004KT P6SM BKN030=



000
FTUS44 KHGX 191730
TAFCLL
TAF
KCLL 191730Z 1918/2018 07011KT P6SM OVC060
     FM192000 02009KT P6SM SCT008 OVC015
     FM201200 01006KT P6SM BKN030=



000
FTUS44 KHGX 191730
TAFGLS
TAF
KGLS 191730Z 1918/2018 03017KT 5SM -RA BR SCT007 BKN016 OVC022
      TEMPO 1918/1920 5SM -TSRA OVC007CB
     FM192100 02013KT 4SM BR VCSH BKN007 OVC015
     FM200300 02016KT P6SM VCSH BKN008 OVC020=



000
FTUS44 KHGX 191518 AAA
TAFCLL
TAF AMD
KCLL 191518Z 1915/2012 03012KT 6SM BR VCSH SCT007 SCT026 OVC045
      TEMPO 1915/1917 5SM -RA BR BKN025
     FM192000 02010KT P6SM OVC015
     FM200300 02007KT P6SM SCT015=



000
FTUS44 KHGX 191518 AAA
TAFCLL
TAF AMD
KCLL 191518Z 1915/2012 03012KT 6SM BR VCSH SCT007 SCT026 OVC045
      TEMPO 1915/1917 5SM -RA BR BKN025
     FM192000 02010KT P6SM OVC015
     FM200300 02007KT P6SM SCT015=



000
FTUS44 KHGX 191517 AAA
TAFUTS
TAF AMD
KUTS 191517Z 1915/2012 36013KT 4SM RA BR SCT007 OVC012
      TEMPO 1915/1917 TSRA BKN007CB
     FM191700 01006KT P6SM -RA OVC007
     FM192000 01007KT P6SM SCT015 BKN020
     FM200300 36003KT P6SM BKN020 OVC050
     FM200600 36003KT 5SM BR OVC003=



000
FTUS44 KHGX 191515 AAA
TAFGLS
TAF AMD
KGLS 191515Z 1915/2012 06014KT P6SM RA SCT007 BKN015 OVC040
      TEMPO 1915/1919 5SM -TSRA OVC007CB
     FM192100 02013KT 4SM BR VCSH BKN007 OVC015
     FM200300 02016KT P6SM VCSH BKN004 OVC008=



000
FTUS44 KHGX 191515 AAA
TAFGLS
TAF AMD
KGLS 191515Z 1915/2012 06014KT P6SM RA SCT007 BKN015 OVC040
      TEMPO 1915/1919 5SM -TSRA OVC007CB
     FM192100 02013KT 4SM BR VCSH BKN007 OVC015
     FM200300 02016KT P6SM VCSH BKN004 OVC008=



000
FTUS44 KHGX 191514 AAB
TAFLBX
TAF AMD
KLBX 191514Z 1915/2012 06010G16KT P6SM -RA BKN012 OVC019
      TEMPO 1915/1919 3SM TSRA OVC008CB
     FM191900 03012KT 4SM BR VCSH BKN007 OVC015
     FM200300 36008KT P6SM OVC004=



000
FTUS44 KHGX 191514 AAB
TAFLBX
TAF AMD
KLBX 191514Z 1915/2012 06010G16KT P6SM -RA BKN012 OVC019
      TEMPO 1915/1919 3SM TSRA OVC008CB
     FM191900 03012KT 4SM BR VCSH BKN007 OVC015
     FM200300 36008KT P6SM OVC004=



000
FTUS44 KHGX 191513 AAA
TAFLBX
TAF AMD
KLBX 191513Z 1915/2012 06012KT P6SM -RA BKN012 OVC019
      TEMPO 1915/1918 3SM TSRA OVC008CB
     FM191900 03012KT 4SM BR VCSH BKN007 OVC015
     FM200300 36008KT P6SM OVC004=



000
FTUS44 KHGX 191513 AAA
TAFLBX
TAF AMD
KLBX 191513Z 1915/2012 06012KT P6SM -RA BKN012 OVC019
      TEMPO 1915/1918 3SM TSRA OVC008CB
     FM191900 03012KT 4SM BR VCSH BKN007 OVC015
     FM200300 36008KT P6SM OVC004=



000
FTUS44 KHGX 191509 AAA
TAFHOU
TAF AMD
KHOU 191509Z 1915/2012 09008KT P6SM -RA BKN007 OVC040
      TEMPO 1915/1919 2SM TSRA OVC007CB
     FM192000 01010KT P6SM VCSH SCT015 BKN020
     FM200300 36008KT P6SM BKN015 OVC020=



000
FTUS44 KHGX 191509 AAA
TAFHOU
TAF AMD
KHOU 191509Z 1915/2012 09008KT P6SM -RA BKN007 OVC040
      TEMPO 1915/1919 2SM TSRA OVC007CB
     FM192000 01010KT P6SM VCSH SCT015 BKN020
     FM200300 36008KT P6SM BKN015 OVC020=



000
FTUS44 KHGX 191504 AAA
TAFIAH
TAF AMD
KIAH 191504Z 1915/2018 01004KT 5SM -RA BR BKN007 OVC013
      TEMPO 1915/1918 2SM TSRA SCT004 OVC013CB
     FM191900 02010KT P6SM VCSH SCT010 BKN025
     FM200000 02007KT P6SM BKN010 OVC015
     FM200900 01008KT P6SM BKN015=



000
FTUS44 KHGX 191504 AAA
TAFIAH
TAF AMD
KIAH 191504Z 1915/2018 01004KT 5SM -RA BR BKN007 OVC013
      TEMPO 1915/1918 2SM TSRA SCT004 OVC013CB
     FM191900 02010KT P6SM VCSH SCT010 BKN025
     FM200000 02007KT P6SM BKN010 OVC015
     FM200900 01008KT P6SM BKN015=



000
FTUS44 KHGX 191151 RRA
TAFGLS
TAF
KGLS 191151Z 1912/2012 04018KT P6SM RA SCT007 BKN015 OVC040
      TEMPO 1912/1915 5SM -TSRA OVC007CB
     FM191800 02013KT 4SM BR VCSH BKN007 OVC015
     FM200300 02016KT P6SM VCSH BKN004 OVC008=



000
FTUS44 KHGX 191151 RRA
TAFGLS
TAF
KGLS 191151Z 1912/2012 04018KT P6SM RA SCT007 BKN015 OVC040
      TEMPO 1912/1915 5SM -TSRA OVC007CB
     FM191800 02013KT 4SM BR VCSH BKN007 OVC015
     FM200300 02016KT P6SM VCSH BKN004 OVC008=



000
FTUS44 KHGX 191140
TAFCXO
TAF
KCXO 191140Z 1912/2012 12006KT 3SM RA VCTS OVC005CB
     FM191800 01006KT P6SM -RA VCSH OVC007
     FM192000 01009KT P6SM SCT015 BKN020
     FM200300 36005KT P6SM BKN020 OVC050
     FM200600 35004KT P6SM OVC005=



000
FTUS44 KHGX 191140
TAFSGR
TAF
KSGR 191140Z 1912/2012 07006KT P6SM -RA VCTS BKN007 OVC015CB
      TEMPO 1912/1913 2SM +TSRA OVC004CB
     FM192000 01008KT P6SM VCSH SCT015 BKN020
     FM200300 36008KT P6SM BKN012 OVC020=



000
FTUS44 KHGX 191140
TAFCLL
TAF
KCLL 191140Z 1912/2012 03014KT 6SM -RA VCTS BKN006 BKN045CB OVC060
     FM192000 02010KT P6SM OVC015
     FM200300 02007KT P6SM SCT015=



000
FTUS44 KHGX 191140
TAFGLS
TAF
KGLS 191140Z 1912/2012 04018KT P6SM RA SCT007 BKN015 OVC040
     FM191800 03012KT 4SM BR VCSH SCT009 BKN015
     FM200300 36013KT P6SM BKN015 OVC050=



000
FTUS44 KHGX 191140
TAFIAH
TAF
KIAH 191140Z 1912/2018 08007KT 6SM -RA VCTS BKN005 OVC009CB
      TEMPO 1912/1914 2SM TSRA OVC004CB
     FM192100 02010KT P6SM VCSH SCT015 BKN025
     FM200000 02007KT P6SM BKN010 OVC015
     FM200900 01008KT P6SM BKN015=



000
FTUS44 KHGX 191140
TAFHOU
TAF
KHOU 191140Z 1912/2012 09010KT P6SM -RA VCTS BKN007CB OVC025
      TEMPO 1912/1913 2SM +TSRA OVC004CB
     FM192000 01010KT P6SM VCSH SCT015 BKN020
     FM200300 36008KT P6SM BKN015 OVC020=



000
FTUS44 KHGX 191140
TAFLBX
TAF
KLBX 191140Z 1912/2012 05009KT P6SM -RA VCTS BKN006 OVC012CB
      TEMPO 1913/1915 3SM TSRA OVC005CB
     FM191800 03012KT 4SM BR VCSH BKN007 OVC015
     FM200300 36008KT P6SM OVC004=



000
FTUS44 KHGX 191140
TAFUTS
TAF
KUTS 191140Z 1912/2012 06005KT P6SM RA VCTS OVC005CB
     FM191700 01006KT P6SM -RA VCSH OVC007
     FM192000 01007KT P6SM SCT015 BKN020
     FM200300 36003KT P6SM BKN020 OVC050
     FM200600 36003KT 5SM BR OVC003=



000
FTUS44 KHGX 191140
TAFCXO
TAF
KCXO 191140Z 1912/2012 12006KT 3SM RA VCTS OVC005CB
     FM191800 01006KT P6SM -RA VCSH OVC007
     FM192000 01009KT P6SM SCT015 BKN020
     FM200300 36005KT P6SM BKN020 OVC050
     FM200600 35004KT P6SM OVC005=



000
FTUS44 KHGX 191140
TAFSGR
TAF
KSGR 191140Z 1912/2012 07006KT P6SM -RA VCTS BKN007 OVC015CB
      TEMPO 1912/1913 2SM +TSRA OVC004CB
     FM192000 01008KT P6SM VCSH SCT015 BKN020
     FM200300 36008KT P6SM BKN012 OVC020=



000
FTUS44 KHGX 191140
TAFIAH
TAF
KIAH 191140Z 1912/2018 08007KT 6SM -RA VCTS BKN005 OVC009CB
      TEMPO 1912/1914 2SM TSRA OVC004CB
     FM192100 02010KT P6SM VCSH SCT015 BKN025
     FM200000 02007KT P6SM BKN010 OVC015
     FM200900 01008KT P6SM BKN015=



000
FTUS44 KHGX 191140
TAFUTS
TAF
KUTS 191140Z 1912/2012 06005KT P6SM RA VCTS OVC005CB
     FM191700 01006KT P6SM -RA VCSH OVC007
     FM192000 01007KT P6SM SCT015 BKN020
     FM200300 36003KT P6SM BKN020 OVC050
     FM200600 36003KT 5SM BR OVC003=



000
FTUS44 KHGX 191140
TAFCLL
TAF
KCLL 191140Z 1912/2012 03014KT 6SM -RA VCTS BKN006 BKN045CB OVC060
     FM192000 02010KT P6SM OVC015
     FM200300 02007KT P6SM SCT015=



000
FTUS44 KHGX 191140
TAFLBX
TAF
KLBX 191140Z 1912/2012 05009KT P6SM -RA VCTS BKN006 OVC012CB
      TEMPO 1913/1915 3SM TSRA OVC005CB
     FM191800 03012KT 4SM BR VCSH BKN007 OVC015
     FM200300 36008KT P6SM OVC004=



000
FTUS44 KHGX 191140
TAFHOU
TAF
KHOU 191140Z 1912/2012 09010KT P6SM -RA VCTS BKN007CB OVC025
      TEMPO 1912/1913 2SM +TSRA OVC004CB
     FM192000 01010KT P6SM VCSH SCT015 BKN020
     FM200300 36008KT P6SM BKN015 OVC020=



000
FTUS44 KHGX 191140
TAFGLS
TAF
KGLS 191140Z 1912/2012 04018KT P6SM RA SCT007 BKN015 OVC040
     FM191800 03012KT 4SM BR VCSH SCT009 BKN015
     FM200300 36013KT P6SM BKN015 OVC050=



000
FTUS44 KHGX 190900 AAA
TAFHOU
TAF AMD
KHOU 190900Z 1909/2006 07010KT 6SM RA VCTS SCT005 OVC025CB
      TEMPO 1909/1910 3SM -TSRA OVC005CB
     FM191000 02008KT 4SM -RA OVC009
     FM192000 01010KT P6SM VCSH SCT015 BKN020
     FM200300 36008KT P6SM BKN020 OVC050=



000
FTUS44 KHGX 190900 AAA
TAFIAH
TAF AMD
KIAH 190900Z 1909/2012 00000KT 4SM RA VCTS BKN005 OVC030CB
      TEMPO 1909/1910 3SM -TSRA
     FM191000 02008KT 3SM -RA BR OVC009
     FM192000 01010KT P6SM VCSH SCT015 BKN020
     FM200300 36008KT P6SM BKN020 OVC050=



000
FTUS44 KHGX 190553 CCA
TAFLBX
TAF COR
KLBX 190553Z 1906/2006 07005KT 5SM -RA BR OVC004
      TEMPO 1906/1910 3SM -TSRA OVC004CB
     FM191200 06003KT 4SM BR VCTS BKN012CB
     FM191800 03012KT 4SM BR VCSH SCT009 BKN015
     FM200300 36008KT P6SM BKN015 OVC050=



000
FTUS44 KHGX 190553 CCA
TAFLBX
TAF COR
KLBX 190553Z 1906/2006 07005KT 5SM -RA BR OVC004
      TEMPO 1906/1910 3SM -TSRA OVC004CB
     FM191200 06003KT 4SM BR VCTS BKN012CB
     FM191800 03012KT 4SM BR VCSH SCT009 BKN015
     FM200300 36008KT P6SM BKN015 OVC050=



000
FTUS44 KHGX 190552 CCA
TAFGLS
TAF COR
KGLS 190552Z 1906/2006 07011KT 4SM -RA BR BKN007 BKN012
      TEMPO 1906/1910 3SM -TSRA SCT007CB
     FM191800 03012KT 4SM BR VCSH SCT009 BKN015
     FM200300 36013KT P6SM BKN015 OVC050=



000
FTUS44 KHGX 190552 CCA
TAFGLS
TAF COR
KGLS 190552Z 1906/2006 07011KT 4SM -RA BR BKN007 BKN012
      TEMPO 1906/1910 3SM -TSRA SCT007CB
     FM191800 03012KT 4SM BR VCSH SCT009 BKN015
     FM200300 36013KT P6SM BKN015 OVC050=



000
FTUS44 KHGX 190528
TAFUTS
TAF
KUTS 190528Z 1906/2006 06006KT 6SM -RA BR OVC006
      TEMPO 1906/1910 4SM -TSRA BR OVC006CB
     FM191000 02008KT 3SM -RA OVC007
     FM192000 01007KT P6SM SCT015 BKN020
     FM200300 36003KT P6SM BKN020 OVC050=



000
FTUS44 KHGX 190528
TAFIAH
TAF
KIAH 190528Z 1906/2012 06009KT P6SM -RA OVC007
      TEMPO 1906/1910 4SM -TSRA OVC007CB
     FM191000 02008KT 3SM -RA BR OVC009
     FM192000 01010KT P6SM VCSH SCT015 BKN020
     FM200300 36008KT P6SM BKN020 OVC050=



000
FTUS44 KHGX 190528
TAFHOU
TAF
KHOU 190528Z 1906/2006 07009KT 6SM -RA BR OVC009
      TEMPO 1906/1910 4SM -TSRA OVC007CB
     FM191000 02008KT 4SM -RA OVC009
     FM192000 01010KT P6SM VCSH SCT015 BKN020
     FM200300 36008KT P6SM BKN020 OVC050=



000
FTUS44 KHGX 190528
TAFLBX
TAF
KLBX 190528Z 1906/2006 07005KT 5SM -RA BR OVC009
      TEMPO 1906/1910 3SM -TSRA OVC007CB
     FM191200 06003KT 4SM BR VCTS BKN012CB
     FM191800 03012KT 4SM BR VCSH SCT009 BKN015
     FM200300 36008KT P6SM BKN015 OVC050=



000
FTUS44 KHGX 190528
TAFCLL
TAF
KCLL 190528Z 1906/2006 03007KT 3SM -RA BR OVC003
      TEMPO 1906/1910 2SM -TSRA BR OVC003CB
     FM191000 02008KT 3SM -RA OVC007
     FM192000 01010KT P6SM SCT015 BKN020
     FM200300 36008KT P6SM BKN020 OVC050=



000
FTUS44 KHGX 190528
TAFUTS
TAF
KUTS 190528Z 1906/2006 06006KT 6SM -RA BR OVC006
      TEMPO 1906/1910 4SM -TSRA BR OVC006CB
     FM191000 02008KT 3SM -RA OVC007
     FM192000 01007KT P6SM SCT015 BKN020
     FM200300 36003KT P6SM BKN020 OVC050=



000
FTUS44 KHGX 190528
TAFSGR
TAF
KSGR 190528Z 1906/2006 06006KT 6SM -RA BR OVC009
      TEMPO 1906/1910 4SM -TSRA OVC007CB
     FM191000 02008KT 3SM -RA OVC009
     FM192000 01008KT P6SM VCSH SCT015 BKN020
     FM200300 36007KT P6SM BKN020 OVC050=



000
FTUS44 KHGX 190528
TAFCXO
TAF
KCXO 190528Z 1906/2006 06008KT 5SM -RA BR OVC006
      TEMPO 1906/1910 3SM -TSRA BR OVC006CB
     FM192000 01009KT P6SM SCT015 BKN020
     FM200300 36005KT P6SM BKN020 OVC050=



000
FTUS44 KHGX 190528
TAFGLS
TAF
KGLS 190528Z 1906/2006 05008KT 4SM -RA BR BKN007 BKN012
      TEMPO 1906/1910 3SM -TSRA SCT007CB
     FM191800 03012KT 4SM BR VCSH SCT009 BKN015
     FM200300 36013KT P6SM BKN015 OVC050=



000
FTUS44 KHGX 190528
TAFLBX
TAF
KLBX 190528Z 1906/2006 07005KT 5SM -RA BR OVC009
      TEMPO 1906/1910 3SM -TSRA OVC007CB
     FM191200 06003KT 4SM BR VCTS BKN012CB
     FM191800 03012KT 4SM BR VCSH SCT009 BKN015
     FM200300 36008KT P6SM BKN015 OVC050=



000
FTUS44 KHGX 190528
TAFGLS
TAF
KGLS 190528Z 1906/2006 05008KT 4SM -RA BR BKN007 BKN012
      TEMPO 1906/1910 3SM -TSRA SCT007CB
     FM191800 03012KT 4SM BR VCSH SCT009 BKN015
     FM200300 36013KT P6SM BKN015 OVC050=



000
FTUS44 KHGX 190528
TAFSGR
TAF
KSGR 190528Z 1906/2006 06006KT 6SM -RA BR OVC009
      TEMPO 1906/1910 4SM -TSRA OVC007CB
     FM191000 02008KT 3SM -RA OVC009
     FM192000 01008KT P6SM VCSH SCT015 BKN020
     FM200300 36007KT P6SM BKN020 OVC050=



000
FTUS44 KHGX 190528
TAFCLL
TAF
KCLL 190528Z 1906/2006 03007KT 3SM -RA BR OVC003
      TEMPO 1906/1910 2SM -TSRA BR OVC003CB
     FM191000 02008KT 3SM -RA OVC007
     FM192000 01010KT P6SM SCT015 BKN020
     FM200300 36008KT P6SM BKN020 OVC050=



000
FTUS44 KHGX 190528
TAFIAH
TAF
KIAH 190528Z 1906/2012 06009KT P6SM -RA OVC007
      TEMPO 1906/1910 4SM -TSRA OVC007CB
     FM191000 02008KT 3SM -RA BR OVC009
     FM192000 01010KT P6SM VCSH SCT015 BKN020
     FM200300 36008KT P6SM BKN020 OVC050=



000
FTUS44 KHGX 190528
TAFHOU
TAF
KHOU 190528Z 1906/2006 07009KT 6SM -RA BR OVC009
      TEMPO 1906/1910 4SM -TSRA OVC007CB
     FM191000 02008KT 4SM -RA OVC009
     FM192000 01010KT P6SM VCSH SCT015 BKN020
     FM200300 36008KT P6SM BKN020 OVC050=



000
FTUS44 KHGX 190528
TAFCXO
TAF
KCXO 190528Z 1906/2006 06008KT 5SM -RA BR OVC006
      TEMPO 1906/1910 3SM -TSRA BR OVC006CB
     FM192000 01009KT P6SM SCT015 BKN020
     FM200300 36005KT P6SM BKN020 OVC050=



000
FTUS44 KHGX 190306 AAC
TAFIAH
TAF AMD
KIAH 190306Z 1903/2006 07008KT P6SM SCT006 OVC010
     FM190600 06006KT 6SM -SHRA BR OVC006
     FM191500 02008KT 3SM -RA OVC009
     FM192000 01010KT P6SM VCSH SCT015 BKN025
     FM200300 36008KT P6SM BKN025 OVC050=



000
FTUS44 KHGX 190306 AAC
TAFLBX
TAF AMD
KLBX 190306Z 1903/1924 07008KT 5SM BR VCSH BKN005 BKN012
      TEMPO 1903/1906 3SM RA BR
     FM190600 07005KT 2SM -SHRA BR OVC009
     FM191200 06003KT 4SM BR VCTS BKN012CB
     FM191800 03012KT 4SM BR VCSH SCT009 BKN015=



000
FTUS44 KHGX 190306 AAC
TAFHOU
TAF AMD
KHOU 190306Z 1903/1924 06010KT 6SM BR VCSH SCT006 OVC011
     FM190500 07006KT 4SM -SHRA BR OVC009
     FM191400 02008KT 3SM -RA OVC009
     FM192000 01010KT P6SM VCSH SCT015 BKN025=



000
FTUS44 KHGX 190306 AAA
TAFSGR
TAF AMD
KSGR 190306Z 1903/1924 06005KT 6SM BR VCSH SCT015 OVC020
     FM190500 06006KT 5SM SHRA BR OVC009
     FM191400 02008KT 3SM -RA OVC009
     FM192000 01008KT P6SM VCSH SCT015 BKN025=



000
FTUS44 KHGX 190306 AAB
TAFCLL
TAF AMD
KCLL 190306Z 1903/1924 04009KT 3SM BR OVC006
     FM190500 03007KT 3SM SHRA BR OVC006
      TEMPO 1911/1915 2SM BR
     FM192000 01010KT P6SM SCT015 BKN025=



000
FTUS44 KHGX 190306 AAC
TAFHOU
TAF AMD
KHOU 190306Z 1903/1924 06010KT 6SM BR VCSH SCT006 OVC011
     FM190500 07006KT 4SM -SHRA BR OVC009
     FM191400 02008KT 3SM -RA OVC009
     FM192000 01010KT P6SM VCSH SCT015 BKN025=



000
FTUS44 KHGX 190306 AAA
TAFCXO
TAF AMD
KCXO 190306Z 1903/1924 03007KT P6SM OVC015
     FM190400 06006KT 4SM SHRA BR OVC006
      TEMPO 1911/1915 2SM BR
     FM192000 01010KT P6SM SCT015 BKN025=



000
FTUS44 KHGX 190306 AAB
TAFCLL
TAF AMD
KCLL 190306Z 1903/1924 04009KT 3SM BR OVC006
     FM190500 03007KT 3SM SHRA BR OVC006
      TEMPO 1911/1915 2SM BR
     FM192000 01010KT P6SM SCT015 BKN025=



000
FTUS44 KHGX 190306 AAC
TAFIAH
TAF AMD
KIAH 190306Z 1903/2006 07008KT P6SM SCT006 OVC010
     FM190600 06006KT 6SM -SHRA BR OVC006
     FM191500 02008KT 3SM -RA OVC009
     FM192000 01010KT P6SM VCSH SCT015 BKN025
     FM200300 36008KT P6SM BKN025 OVC050=



000
FTUS44 KHGX 190306 AAC
TAFLBX
TAF AMD
KLBX 190306Z 1903/1924 07008KT 5SM BR VCSH BKN005 BKN012
      TEMPO 1903/1906 3SM RA BR
     FM190600 07005KT 2SM -SHRA BR OVC009
     FM191200 06003KT 4SM BR VCTS BKN012CB
     FM191800 03012KT 4SM BR VCSH SCT009 BKN015=



000
FTUS44 KHGX 190306 AAA
TAFCXO
TAF AMD
KCXO 190306Z 1903/1924 03007KT P6SM OVC015
     FM190400 06006KT 4SM SHRA BR OVC006
      TEMPO 1911/1915 2SM BR
     FM192000 01010KT P6SM SCT015 BKN025=



000
FTUS44 KHGX 190306 AAA
TAFSGR
TAF AMD
KSGR 190306Z 1903/1924 06005KT 6SM BR VCSH SCT015 OVC020
     FM190500 06006KT 5SM SHRA BR OVC009
     FM191400 02008KT 3SM -RA OVC009
     FM192000 01008KT P6SM VCSH SCT015 BKN025=



000
FTUS44 KHGX 190217 AAB
TAFLBX
TAF AMD
KLBX 190217Z 1902/1924 07008KT 6SM BR VCSH BKN005 BKN012
     FM190600 07005KT 2SM -SHRA BR OVC009
     FM191200 06003KT 4SM BR VCTS BKN012CB
     FM191800 03012KT 4SM BR VCSH SCT009 BKN015=



000
FTUS44 KHGX 190217 AAC
TAFGLS
TAF AMD
KGLS 190217Z 1902/1924 04010KT 6SM BR VCSH BKN009 OVC015
     FM190500 05008KT 3SM BR VCTS BKN007 BKN012CB
     FM191800 03012KT 4SM BR VCSH SCT009 BKN015=



000
FTUS44 KHGX 190217 AAB
TAFHOU
TAF AMD
KHOU 190217Z 1902/1924 06005KT 6SM BR VCSH SCT006 OVC011
     FM190500 07006KT 4SM -SHRA BR OVC009
     FM191400 02008KT 3SM -RA OVC009
     FM192000 01010KT P6SM VCSH SCT015 BKN025=



000
FTUS44 KHGX 190217 AAB
TAFIAH
TAF AMD
KIAH 190217Z 1902/2006 05008KT P6SM BKN012 OVC060
     FM190300 06005KT P6SM SCT006 OVC012
     FM190600 06006KT 6SM -SHRA BR OVC006
     FM191500 02008KT 3SM -RA OVC009
     FM192000 01010KT P6SM VCSH SCT015 BKN025
     FM200300 36008KT P6SM BKN025 OVC050=



000
FTUS44 KHGX 190128 AAB
TAFGLS
TAF AMD
KGLS 190128Z 1901/1924 06009KT 6SM BR VCSH BKN005 OVC025
      TEMPO 1901/1902 2SM SHRA BR
     FM190200 07005KT 4SM BR VCSH BKN009 OVC015
     FM191200 05008KT 3SM BR VCTS BKN007 BKN012CB
     FM191800 03012KT 4SM BR VCSH SCT009 BKN015=



000
FTUS44 KHGX 190128 AAB
TAFGLS
TAF AMD
KGLS 190128Z 1901/1924 06009KT 6SM BR VCSH BKN005 OVC025
      TEMPO 1901/1902 2SM SHRA BR
     FM190200 07005KT 4SM BR VCSH BKN009 OVC015
     FM191200 05008KT 3SM BR VCTS BKN007 BKN012CB
     FM191800 03012KT 4SM BR VCSH SCT009 BKN015=



000
FTUS44 KHGX 190128 AAB
TAFGLS
TAF AMD
KGLS 190128Z 1901/1924 06009KT 6SM BR VCSH BKN005 OVC025
      TEMPO 1901/1902 2SM SHRA BR
     FM190200 07005KT 4SM BR VCSH BKN009 OVC015
     FM191200 05008KT 3SM BR VCTS BKN007 BKN012CB
     FM191800 03012KT 4SM BR VCSH SCT009 BKN015=



000
FTUS44 KHGX 190128 AAB
TAFGLS
TAF AMD
KGLS 190128Z 1901/1924 06009KT 6SM BR VCSH BKN005 OVC025
      TEMPO 1901/1902 2SM SHRA BR
     FM190200 07005KT 4SM BR VCSH BKN009 OVC015
     FM191200 05008KT 3SM BR VCTS BKN007 BKN012CB
     FM191800 03012KT 4SM BR VCSH SCT009 BKN015=



000
FTUS44 KHGX 190100 AAA
TAFIAH
TAF AMD
KIAH 190100Z 1901/2006 05008KT P6SM BKN020 OVC030
     FM190300 06005KT P6SM VCSH SCT006 OVC012
     FM190600 06006KT 6SM -SHRA BR OVC006
     FM191500 02008KT 3SM -RA OVC009
     FM192000 01010KT P6SM VCSH SCT015 BKN025
     FM200300 36008KT P6SM BKN025 OVC050=



000
FTUS44 KHGX 190100 AAA
TAFCLL
TAF AMD
KCLL 190100Z 1901/1924 04004KT 6SM BR OVC009
     FM190500 03007KT 4SM SHRA BR OVC006
      TEMPO 1911/1915 2SM BR
     FM192000 01010KT P6SM SCT015 BKN025=



000
FTUS44 KHGX 190100 AAA
TAFHOU
TAF AMD
KHOU 190100Z 1901/1924 05010KT P6SM VCSH BKN015 OVC025
     FM190200 06005KT 6SM BR VCSH SCT006 OVC009
     FM190500 07006KT 4SM -SHRA BR OVC009
     FM191400 02008KT 3SM -RA OVC009
     FM192000 01010KT P6SM VCSH SCT015 BKN025=



000
FTUS44 KHGX 190100 AAA
TAFGLS
TAF AMD
KGLS 190100Z 1901/1924 36006KT 6SM BR VCSH BKN005 OVC025
      TEMPO 1901/1902 2SM SHRA BR
     FM190200 07005KT 4SM BR VCSH BKN009 OVC015
     FM191200 05008KT 3SM BR VCTS BKN007 BKN012CB
     FM191800 03012KT 4SM BR VCSH SCT009 BKN015=



000
FTUS44 KHGX 190100 AAA
TAFHOU
TAF AMD
KHOU 190100Z 1901/1924 05010KT P6SM VCSH BKN015 OVC025
     FM190200 06005KT 6SM BR VCSH SCT006 OVC009
     FM190500 07006KT 4SM -SHRA BR OVC009
     FM191400 02008KT 3SM -RA OVC009
     FM192000 01010KT P6SM VCSH SCT015 BKN025=



000
FTUS44 KHGX 190100 AAA
TAFLBX
TAF AMD
KLBX 190100Z 1901/1924 03005KT 6SM BR VCSH BKN005 OVC015
      TEMPO 1901/1902 2SM SHRA BR
     FM190200 07005KT 4SM BR VCSH BKN009 BKN012
     FM190600 07005KT 1SM -SHRA BR OVC009
     FM191200 06003KT 4SM BR VCTS BKN012CB
     FM191800 03012KT 4SM BR VCSH SCT009 BKN015=



000
FTUS44 KHGX 190100 AAA
TAFLBX
TAF AMD
KLBX 190100Z 1901/1924 03005KT 6SM BR VCSH BKN005 OVC015
      TEMPO 1901/1902 2SM SHRA BR
     FM190200 07005KT 4SM BR VCSH BKN009 BKN012
     FM190600 07005KT 1SM -SHRA BR OVC009
     FM191200 06003KT 4SM BR VCTS BKN012CB
     FM191800 03012KT 4SM BR VCSH SCT009 BKN015=



000
FTUS44 KHGX 190100 AAA
TAFGLS
TAF AMD
KGLS 190100Z 1901/1924 36006KT 6SM BR VCSH BKN005 OVC025
      TEMPO 1901/1902 2SM SHRA BR
     FM190200 07005KT 4SM BR VCSH BKN009 OVC015
     FM191200 05008KT 3SM BR VCTS BKN007 BKN012CB
     FM191800 03012KT 4SM BR VCSH SCT009 BKN015=



000
FTUS44 KHGX 182336
TAFIAH
TAF
KIAH 182336Z 1900/2006 05008KT P6SM BKN015 OVC040
     FM190300 06005KT P6SM VCSH SCT006 OVC009
     FM190600 06006KT 6SM -SHRA BR OVC006
     FM191500 02008KT 3SM -RA OVC009
     FM192000 01010KT P6SM VCSH SCT015 BKN025
     FM200300 36008KT P6SM BKN025 OVC050=



000
FTUS44 KHGX 182336
TAFCXO
TAF
KCXO 182336Z 1900/1924 03007KT P6SM OVC020
     FM190400 06006KT 4SM SHRA BR OVC006
      TEMPO 1911/1915 2SM BR
     FM192000 01010KT P6SM SCT015 BKN025=



000
FTUS44 KHGX 182336
TAFUTS
TAF
KUTS 182336Z 1900/1924 04002KT P6SM OVC012
     FM190500 06006KT 4SM SHRA BR OVC006
      TEMPO 1911/1915 2SM BR
     FM192000 01010KT P6SM SCT015 BKN025=



000
FTUS44 KHGX 182336
TAFLBX
TAF
KLBX 182336Z 1900/1924 03005KT 3SM BR VCSH BKN005 OVC015
      TEMPO 1900/1902 2SM SHRA BR
     FM190200 07005KT 2SM BR VCSH BKN009 BKN012
     FM190600 07005KT 1SM -SHRA BR OVC009
     FM191200 06003KT 4SM BR VCTS BKN012CB
     FM191800 03012KT 4SM BR VCSH SCT009 BKN015=



000
FTUS44 KHGX 182336
TAFIAH
TAF
KIAH 182336Z 1900/2006 05008KT P6SM BKN015 OVC040
     FM190300 06005KT P6SM VCSH SCT006 OVC009
     FM190600 06006KT 6SM -SHRA BR OVC006
     FM191500 02008KT 3SM -RA OVC009
     FM192000 01010KT P6SM VCSH SCT015 BKN025
     FM200300 36008KT P6SM BKN025 OVC050=



000
FTUS44 KHGX 182336
TAFGLS
TAF
KGLS 182336Z 1900/1924 36006KT 3SM BR VCSH BKN005 OVC025
      TEMPO 1900/1902 2SM SHRA BR
     FM190200 07005KT 2SM BR VCSH BKN009 OVC015
     FM191200 05008KT 3SM BR VCTS BKN007 BKN012CB
     FM191800 03012KT 4SM BR VCSH SCT009 BKN015=



000
FTUS44 KHGX 182336
TAFHOU
TAF
KHOU 182336Z 1900/1924 07006KT P6SM VCSH BKN015 OVC025
     FM190200 06005KT 6SM BR VCSH SCT006 OVC009
     FM190500 07006KT 4SM -SHRA BR OVC009
     FM191400 02008KT 3SM -RA OVC009
     FM192000 01010KT P6SM VCSH SCT015 BKN025=



000
FTUS44 KHGX 182336
TAFSGR
TAF
KSGR 182336Z 1900/1924 02008KT P6SM VCSH BKN025 BKN035
     FM190200 06005KT 6SM BR VCSH SCT009 OVC015
     FM190500 06006KT 5SM SHRA BR OVC009
     FM191400 02008KT 3SM -RA OVC009
     FM192000 01008KT P6SM VCSH SCT015 BKN025=



000
FTUS44 KHGX 182336
TAFLBX
TAF
KLBX 182336Z 1900/1924 03005KT 3SM BR VCSH BKN005 OVC015
      TEMPO 1900/1902 2SM SHRA BR
     FM190200 07005KT 2SM BR VCSH BKN009 BKN012
     FM190600 07005KT 1SM -SHRA BR OVC009
     FM191200 06003KT 4SM BR VCTS BKN012CB
     FM191800 03012KT 4SM BR VCSH SCT009 BKN015=



000
FTUS44 KHGX 182336
TAFCLL
TAF
KCLL 182336Z 1900/1924 04004KT P6SM OVC012
     FM190500 03007KT 4SM SHRA BR OVC006
      TEMPO 1911/1915 2SM BR
     FM192000 01010KT P6SM SCT015 BKN025=



000
FTUS44 KHGX 182336
TAFHOU
TAF
KHOU 182336Z 1900/1924 07006KT P6SM VCSH BKN015 OVC025
     FM190200 06005KT 6SM BR VCSH SCT006 OVC009
     FM190500 07006KT 4SM -SHRA BR OVC009
     FM191400 02008KT 3SM -RA OVC009
     FM192000 01010KT P6SM VCSH SCT015 BKN025=



000
FTUS44 KHGX 182336
TAFCXO
TAF
KCXO 182336Z 1900/1924 03007KT P6SM OVC020
     FM190400 06006KT 4SM SHRA BR OVC006
      TEMPO 1911/1915 2SM BR
     FM192000 01010KT P6SM SCT015 BKN025=



000
FTUS44 KHGX 182336
TAFUTS
TAF
KUTS 182336Z 1900/1924 04002KT P6SM OVC012
     FM190500 06006KT 4SM SHRA BR OVC006
      TEMPO 1911/1915 2SM BR
     FM192000 01010KT P6SM SCT015 BKN025=



000
FTUS44 KHGX 182336
TAFSGR
TAF
KSGR 182336Z 1900/1924 02008KT P6SM VCSH BKN025 BKN035
     FM190200 06005KT 6SM BR VCSH SCT009 OVC015
     FM190500 06006KT 5SM SHRA BR OVC009
     FM191400 02008KT 3SM -RA OVC009
     FM192000 01008KT P6SM VCSH SCT015 BKN025=



000
FTUS44 KHGX 182336
TAFCLL
TAF
KCLL 182336Z 1900/1924 04004KT P6SM OVC012
     FM190500 03007KT 4SM SHRA BR OVC006
      TEMPO 1911/1915 2SM BR
     FM192000 01010KT P6SM SCT015 BKN025=



000
FTUS44 KHGX 182336
TAFGLS
TAF
KGLS 182336Z 1900/1924 36006KT 3SM BR VCSH BKN005 OVC025
      TEMPO 1900/1902 2SM SHRA BR
     FM190200 07005KT 2SM BR VCSH BKN009 OVC015
     FM191200 05008KT 3SM BR VCTS BKN007 BKN012CB
     FM191800 03012KT 4SM BR VCSH SCT009 BKN015=



000
FTUS44 KHGX 182108 AAA
TAFGLS
TAF AMD
KGLS 182108Z 1821/1918 36006KT 2SM BR OVC004
     FM190300 07005KT 1SM BR VCSH SCT009 OVC015
     FM191200 05008KT 3SM BR VCTS SCT007 BKN015CB=



000
FTUS44 KHGX 182108 AAA
TAFGLS
TAF AMD
KGLS 182108Z 1821/1918 36006KT 2SM BR OVC004
     FM190300 07005KT 1SM BR VCSH SCT009 OVC015
     FM191200 05008KT 3SM BR VCTS SCT007 BKN015CB=



000
FTUS44 KHGX 182106 AAA
TAFLBX
TAF AMD
KLBX 182106Z 1821/1918 04004KT P6SM VCSH SCT027 BKN035 OVC060
     FM190100 07005KT 6SM BR VCSH BKN009 BKN012
     FM190600 07006KT 1SM -SHRA BR OVC009
     FM191200 06003KT 4SM BR VCTS BKN015CB=



000
FTUS44 KHGX 182106 AAA
TAFLBX
TAF AMD
KLBX 182106Z 1821/1918 04004KT P6SM VCSH SCT027 BKN035 OVC060
     FM190100 07005KT 6SM BR VCSH BKN009 BKN012
     FM190600 07006KT 1SM -SHRA BR OVC009
     FM191200 06003KT 4SM BR VCTS BKN015CB=



000
FTUS44 KHGX 182105 AAA
TAFHOU
TAF AMD
KHOU 182105Z 1821/1918 02004KT P6SM VCSH FEW012 BKN030 BKN045
      TEMPO 1821/1824 SCT025 BKN045
     FM190000 07006KT P6SM VCSH BKN006 OVC015
     FM190600 07006KT 1SM -SHRA BR OVC009=



000
FTUS44 KHGX 182105 AAA
TAFHOU
TAF AMD
KHOU 182105Z 1821/1918 02004KT P6SM VCSH FEW012 BKN030 BKN045
      TEMPO 1821/1824 SCT025 BKN045
     FM190000 07006KT P6SM VCSH BKN006 OVC015
     FM190600 07006KT 1SM -SHRA BR OVC009=



000
FTUS44 KHGX 182104 AAB
TAFCXO
TAF AMD
KCXO 182104Z 1821/1918 10004KT P6SM OVC022
      TEMPO 1822/1824 SCT020 BKN050
     FM190000 06006KT P6SM VCSH BKN006 OVC015
     FM190600 06006KT 5SM SHRA BR OVC006=



000
FTUS44 KHGX 182104 AAB
TAFCXO
TAF AMD
KCXO 182104Z 1821/1918 10004KT P6SM OVC022
      TEMPO 1822/1824 SCT020 BKN050
     FM190000 06006KT P6SM VCSH BKN006 OVC015
     FM190600 06006KT 5SM SHRA BR OVC006=



000
FTUS44 KHGX 182104 AAB
TAFIAH
TAF AMD
KIAH 182104Z 1821/1924 04005KT P6SM BKN013 OVC040
      TEMPO 1821/1824 SCT015 BKN045
     FM190000 06006KT P6SM VCSH BKN006 OVC015
     FM190600 06006KT 5SM -SHRA BR OVC006
     FM191500 02008KT 3SM -RA OVC007
     FM192000 01010KT P6SM SCT015 BKN025=



000
FTUS44 KHGX 182104 AAB
TAFIAH
TAF AMD
KIAH 182104Z 1821/1924 04005KT P6SM BKN013 OVC040
      TEMPO 1821/1824 SCT015 BKN045
     FM190000 06006KT P6SM VCSH BKN006 OVC015
     FM190600 06006KT 5SM -SHRA BR OVC006
     FM191500 02008KT 3SM -RA OVC007
     FM192000 01010KT P6SM SCT015 BKN025=



000
FTUS44 KHGX 181945 AAA
TAFSGR
TAF AMD
KSGR 181945Z 1820/1918 04003KT P6SM VCSH FEW014 SCT023 OVC035
      TEMPO 1820/1824 BKN025
     FM190000 04005KT 6SM BR VCSH BKN009 BKN012
     FM190600 06006KT 5SM SHRA BR OVC009=



000
FTUS44 KHGX 181945 AAA
TAFSGR
TAF AMD
KSGR 181945Z 1820/1918 04003KT P6SM VCSH FEW014 SCT023 OVC035
      TEMPO 1820/1824 BKN025
     FM190000 04005KT 6SM BR VCSH BKN009 BKN012
     FM190600 06006KT 5SM SHRA BR OVC009=



000
FTUS44 KHGX 181924 AAA
TAFIAH
TAF AMD
KIAH 181924Z 1819/1924 09006KT P6SM SCT010 BKN060
      TEMPO 1820/1824 BKN015
     FM190000 06006KT P6SM VCSH BKN006 OVC015
     FM190600 06006KT 5SM -SHRA BR OVC006
     FM191500 02008KT 3SM -RA OVC007
     FM192000 01010KT P6SM SCT015 BKN025=



000
FTUS44 KHGX 181924 AAA
TAFIAH
TAF AMD
KIAH 181924Z 1819/1924 09006KT P6SM SCT010 BKN060
      TEMPO 1820/1824 BKN015
     FM190000 06006KT P6SM VCSH BKN006 OVC015
     FM190600 06006KT 5SM -SHRA BR OVC006
     FM191500 02008KT 3SM -RA OVC007
     FM192000 01010KT P6SM SCT015 BKN025=



000
FTUS44 KHGX 181922 AAA
TAFCXO
TAF AMD
KCXO 181922Z 1819/1918 13005KT P6SM FEW050
      TEMPO 1822/1824 BKN015
     FM190000 06006KT P6SM VCSH BKN006 OVC015
     FM190600 06006KT 5SM SHRA BR OVC006=



000
FTUS44 KHGX 181922 AAA
TAFCXO
TAF AMD
KCXO 181922Z 1819/1918 13005KT P6SM FEW050
      TEMPO 1822/1824 BKN015
     FM190000 06006KT P6SM VCSH BKN006 OVC015
     FM190600 06006KT 5SM SHRA BR OVC006=



000
FTUS44 KHGX 181734
TAFSGR
TAF
KSGR 181734Z 1818/1918 07005KT P6SM VCSH BKN009
      TEMPO 1818/1820 6SM SHRA BR BKN015
     FM182000 06004KT P6SM VCSH BKN015
     FM190000 04005KT 6SM BR VCSH BKN009 BKN012
     FM190600 06006KT 5SM SHRA BR OVC009=



000
FTUS44 KHGX 181734
TAFHOU
TAF
KHOU 181734Z 1818/1918 06005KT 6SM BR VCSH BKN006 OVC015
      TEMPO 1818/1819 6SM -RA BR SCT005 OVC015
     FM181900 06006KT P6SM VCSH SCT010 BKN015
     FM190000 07006KT P6SM VCSH BKN006 OVC015
     FM190600 07006KT 1SM -SHRA BR OVC009=



000
FTUS44 KHGX 181734
TAFIAH
TAF
KIAH 181734Z 1818/1924 04005KT 4SM BR OVC005
      TEMPO 1818/1820 SCT005 BKN010
     FM182000 07006KT P6SM SCT010 BKN015
     FM190000 06006KT P6SM VCSH BKN006 OVC015
     FM190600 06006KT 5SM -SHRA BR OVC006
     FM191500 02008KT 3SM -RA OVC007
     FM192000 01010KT P6SM SCT015 BKN025=



000
FTUS44 KHGX 181734
TAFCLL
TAF
KCLL 181734Z 1818/1918 05003KT 6SM HZ OVC007
      TEMPO 1818/1821 OVC012
     FM182100 04004KT P6SM OVC012
     FM190400 03007KT 4SM SHRA BR OVC006=



000
FTUS44 KHGX 181734
TAFUTS
TAF
KUTS 181734Z 1818/1918 VRB02KT P6SM OVC009
      TEMPO 1818/1821 OVC012
     FM182100 04002KT P6SM OVC012
     FM190400 06006KT 4SM SHRA BR OVC006=



000
FTUS44 KHGX 181734
TAFCXO
TAF
KCXO 181734Z 1818/1918 10004KT P6SM OVC008
      TEMPO 1818/1821 OVC012
     FM190000 06006KT P6SM VCSH BKN006 OVC015
     FM190600 06006KT 5SM SHRA BR OVC006=



000
FTUS44 KHGX 181734
TAFGLS
TAF
KGLS 181734Z 1818/1918 35004KT 2SM -RA BR VCSH OVC006
     FM182100 07007KT 4SM -SHRA BR SCT008 BKN025
     FM190300 07005KT 1SM BR VCSH SCT009 OVC015
     FM191200 05008KT 3SM BR VCTS SCT007 BKN015CB=



000
FTUS44 KHGX 181734
TAFLBX
TAF
KLBX 181734Z 1818/1918 00000KT P6SM VCSH FEW002 BKN015 OVC027
     FM190100 07005KT 6SM BR VCSH BKN009 BKN012
     FM190600 07006KT 1SM -SHRA BR OVC009
     FM191200 06003KT 4SM BR VCTS BKN015CB=



000
FTUS44 KHGX 181734
TAFSGR
TAF
KSGR 181734Z 1818/1918 07005KT P6SM VCSH BKN009
      TEMPO 1818/1820 6SM SHRA BR BKN015
     FM182000 06004KT P6SM VCSH BKN015
     FM190000 04005KT 6SM BR VCSH BKN009 BKN012
     FM190600 06006KT 5SM SHRA BR OVC009=



000
FTUS44 KHGX 181734
TAFUTS
TAF
KUTS 181734Z 1818/1918 VRB02KT P6SM OVC009
      TEMPO 1818/1821 OVC012
     FM182100 04002KT P6SM OVC012
     FM190400 06006KT 4SM SHRA BR OVC006=



000
FTUS44 KHGX 181734
TAFIAH
TAF
KIAH 181734Z 1818/1924 04005KT 4SM BR OVC005
      TEMPO 1818/1820 SCT005 BKN010
     FM182000 07006KT P6SM SCT010 BKN015
     FM190000 06006KT P6SM VCSH BKN006 OVC015
     FM190600 06006KT 5SM -SHRA BR OVC006
     FM191500 02008KT 3SM -RA OVC007
     FM192000 01010KT P6SM SCT015 BKN025=



000
FTUS44 KHGX 181734
TAFGLS
TAF
KGLS 181734Z 1818/1918 35004KT 2SM -RA BR VCSH OVC006
     FM182100 07007KT 4SM -SHRA BR SCT008 BKN025
     FM190300 07005KT 1SM BR VCSH SCT009 OVC015
     FM191200 05008KT 3SM BR VCTS SCT007 BKN015CB=



000
FTUS44 KHGX 181734
TAFCLL
TAF
KCLL 181734Z 1818/1918 05003KT 6SM HZ OVC007
      TEMPO 1818/1821 OVC012
     FM182100 04004KT P6SM OVC012
     FM190400 03007KT 4SM SHRA BR OVC006=



000
FTUS44 KHGX 181734
TAFCXO
TAF
KCXO 181734Z 1818/1918 10004KT P6SM OVC008
      TEMPO 1818/1821 OVC012
     FM190000 06006KT P6SM VCSH BKN006 OVC015
     FM190600 06006KT 5SM SHRA BR OVC006=



000
FTUS44 KHGX 181734
TAFHOU
TAF
KHOU 181734Z 1818/1918 06005KT 6SM BR VCSH BKN006 OVC015
      TEMPO 1818/1819 6SM -RA BR SCT005 OVC015
     FM181900 06006KT P6SM VCSH SCT010 BKN015
     FM190000 07006KT P6SM VCSH BKN006 OVC015
     FM190600 07006KT 1SM -SHRA BR OVC009=



000
FTUS44 KHGX 181734
TAFLBX
TAF
KLBX 181734Z 1818/1918 00000KT P6SM VCSH FEW002 BKN015 OVC027
     FM190100 07005KT 6SM BR VCSH BKN009 BKN012
     FM190600 07006KT 1SM -SHRA BR OVC009
     FM191200 06003KT 4SM BR VCTS BKN015CB=



000
FTUS44 KHGX 181623 AAB
TAFUTS
TAF AMD
KUTS 181623Z 1816/1912 05005KT P6SM OVC008
      TEMPO 1816/1818 SCT007
     FM181800 05006KT P6SM SCT009 BKN015
     FM190000 06006KT P6SM VCSH BKN006 OVC015
     FM190600 06006KT 4SM SHRA BR OVC006=



000
FTUS44 KHGX 181623 AAB
TAFUTS
TAF AMD
KUTS 181623Z 1816/1912 05005KT P6SM OVC008
      TEMPO 1816/1818 SCT007
     FM181800 05006KT P6SM SCT009 BKN015
     FM190000 06006KT P6SM VCSH BKN006 OVC015
     FM190600 06006KT 4SM SHRA BR OVC006=



000
FTUS44 KHGX 181613 AAB
TAFLBX
TAF AMD
KLBX 181613Z 1816/1912 00000KT P6SM -RA VCSH FEW005 BKN013 OVC050
     FM181800 19007KT P6SM VCSH SCT010 BKN020
     FM190100 07005KT 6SM BR VCSH SCT009 BKN012
     FM190600 07006KT 4SM BR VCSH OVC009=



000
FTUS44 KHGX 181613 AAB
TAFLBX
TAF AMD
KLBX 181613Z 1816/1912 00000KT P6SM -RA VCSH FEW005 BKN013 OVC050
     FM181800 19007KT P6SM VCSH SCT010 BKN020
     FM190100 07005KT 6SM BR VCSH SCT009 BKN012
     FM190600 07006KT 4SM BR VCSH OVC009=



000
FTUS44 KHGX 181613 AAC
TAFGLS
TAF AMD
KGLS 181613Z 1816/1912 01009KT 5SM BR VCSH SCT006 BKN021 OVC035
      TEMPO 1816/1818 5SM -RA BR BKN015
     FM181800 14008KT P6SM VCSH SCT010 BKN020
     FM190300 07005KT 6SM BR VCSH SCT009 OVC015=



000
FTUS44 KHGX 181613 AAC
TAFGLS
TAF AMD
KGLS 181613Z 1816/1912 01009KT 5SM BR VCSH SCT006 BKN021 OVC035
      TEMPO 1816/1818 5SM -RA BR BKN015
     FM181800 14008KT P6SM VCSH SCT010 BKN020
     FM190300 07005KT 6SM BR VCSH SCT009 OVC015=



000
FTUS44 KHGX 181611 AAC
TAFIAH
TAF AMD
KIAH 181611Z 1816/1918 03004KT 4SM BR OVC006
      TEMPO 1816/1819 SCT005 BKN010
     FM181900 07006KT P6SM SCT010 BKN020
     FM190000 06006KT P6SM VCSH BKN006 OVC015
     FM190600 06006KT 5SM SHRA BR OVC009=



000
FTUS44 KHGX 181611 AAB
TAFCXO
TAF AMD
KCXO 181611Z 1816/1912 07004KT P6SM OVC006
     FM181800 05006KT P6SM SCT009 BKN015
     FM190000 06006KT P6SM VCSH BKN006 OVC015
     FM190600 06006KT 5SM SHRA BR OVC006=



000
FTUS44 KHGX 181611 AAB
TAFCXO
TAF AMD
KCXO 181611Z 1816/1912 07004KT P6SM OVC006
     FM181800 05006KT P6SM SCT009 BKN015
     FM190000 06006KT P6SM VCSH BKN006 OVC015
     FM190600 06006KT 5SM SHRA BR OVC006=



000
FTUS44 KHGX 181611 AAB
TAFCLL
TAF AMD
KCLL 181611Z 1816/1912 VRB03KT 6SM BR OVC006
     FM181800 02006KT P6SM SCT009 BKN015
     FM190000 03005KT 6SM BR VCSH SCT009 BKN012
     FM190600 03007KT 4SM SHRA BR OVC006=



000
FTUS44 KHGX 181611 AAB
TAFCLL
TAF AMD
KCLL 181611Z 1816/1912 VRB03KT 6SM BR OVC006
     FM181800 02006KT P6SM SCT009 BKN015
     FM190000 03005KT 6SM BR VCSH SCT009 BKN012
     FM190600 03007KT 4SM SHRA BR OVC006=



000
FTUS44 KHGX 181611 AAB
TAFSGR
TAF AMD
KSGR 181611Z 1816/1912 03005KT 6SM BR VCSH BKN007 OVC015
     FM181800 06006KT P6SM VCSH SCT010 BKN020
     FM190000 04005KT 6SM BR VCSH SCT009 BKN012
     FM190600 06006KT 5SM SHRA BR OVC009=



000
FTUS44 KHGX 181611 AAC
TAFIAH
TAF AMD
KIAH 181611Z 1816/1918 03004KT 4SM BR OVC006
      TEMPO 1816/1819 SCT005 BKN010
     FM181900 07006KT P6SM SCT010 BKN020
     FM190000 06006KT P6SM VCSH BKN006 OVC015
     FM190600 06006KT 5SM SHRA BR OVC009=



000
FTUS44 KHGX 181611 AAB
TAFSGR
TAF AMD
KSGR 181611Z 1816/1912 03005KT 6SM BR VCSH BKN007 OVC015
     FM181800 06006KT P6SM VCSH SCT010 BKN020
     FM190000 04005KT 6SM BR VCSH SCT009 BKN012
     FM190600 06006KT 5SM SHRA BR OVC009=



000
FTUS44 KHGX 181447 AAB
TAFGLS
TAF AMD
KGLS 181447Z 1815/1912 15005KT 6SM BR VCSH OVC050
      TEMPO 1815/1818 2SM SHRA BR BKN015
     FM181800 14008KT P6SM VCSH SCT010 BKN020
     FM190300 07005KT 6SM BR VCSH SCT009 OVC015=



000
FTUS44 KHGX 181447 AAB
TAFGLS
TAF AMD
KGLS 181447Z 1815/1912 15005KT 6SM BR VCSH OVC050
      TEMPO 1815/1818 2SM SHRA BR BKN015
     FM181800 14008KT P6SM VCSH SCT010 BKN020
     FM190300 07005KT 6SM BR VCSH SCT009 OVC015=



000
FTUS44 KHGX 181445 AAB
TAFHOU
TAF AMD
KHOU 181445Z 1815/1912 36004KT 3SM BR VCSH BKN005 OVC020
      TEMPO 1816/1819 6SM -RA BR SCT005 OVC020
     FM181900 06006KT P6SM VCSH SCT010 BKN015
     FM190000 07006KT P6SM VCSH SCT006 OVC015
     FM190600 07006KT 5SM SHRA BR OVC009=



000
FTUS44 KHGX 181445 AAB
TAFHOU
TAF AMD
KHOU 181445Z 1815/1912 36004KT 3SM BR VCSH BKN005 OVC020
      TEMPO 1816/1819 6SM -RA BR SCT005 OVC020
     FM181900 06006KT P6SM VCSH SCT010 BKN015
     FM190000 07006KT P6SM VCSH SCT006 OVC015
     FM190600 07006KT 5SM SHRA BR OVC009=



000
FTUS44 KHGX 181444 AAB
TAFIAH
TAF AMD
KIAH 181444Z 1815/1918 02006KT 3SM BR OVC003
      TEMPO 1816/1819 SCT005 BKN010
     FM181900 07006KT P6SM SCT010 BKN020
     FM190000 06006KT P6SM VCSH BKN006 OVC015
     FM190600 06006KT 5SM SHRA BR OVC009=



000
FTUS44 KHGX 181444 AAB
TAFIAH
TAF AMD
KIAH 181444Z 1815/1918 02006KT 3SM BR OVC003
      TEMPO 1816/1819 SCT005 BKN010
     FM181900 07006KT P6SM SCT010 BKN020
     FM190000 06006KT P6SM VCSH BKN006 OVC015
     FM190600 06006KT 5SM SHRA BR OVC009=



000
FTUS44 KHGX 181343 AAA
TAFGLS
TAF AMD
KGLS 181343Z 1814/1912 14007KT P6SM VCSH FEW050 BKN090
      TEMPO 1814/1818 2SM SHRA BR BKN015
     FM181800 14008KT P6SM VCSH SCT010 BKN020
     FM190300 07005KT 6SM BR VCSH SCT009 OVC015=



000
FTUS44 KHGX 181343 AAA
TAFGLS
TAF AMD
KGLS 181343Z 1814/1912 14007KT P6SM VCSH FEW050 BKN090
      TEMPO 1814/1818 2SM SHRA BR BKN015
     FM181800 14008KT P6SM VCSH SCT010 BKN020
     FM190300 07005KT 6SM BR VCSH SCT009 OVC015=



000
FTUS44 KHGX 181343 AAA
TAFGLS
TAF AMD
KGLS 181343Z 1814/1912 14007KT P6SM VCSH FEW050 BKN090
      TEMPO 1814/1818 2SM SHRA BR BKN015
     FM181800 14008KT P6SM VCSH SCT010 BKN020
     FM190300 07005KT 6SM BR VCSH SCT009 OVC015=



000
FTUS44 KHGX 181343 AAA
TAFGLS
TAF AMD
KGLS 181343Z 1814/1912 14007KT P6SM VCSH FEW050 BKN090
      TEMPO 1814/1818 2SM SHRA BR BKN015
     FM181800 14008KT P6SM VCSH SCT010 BKN020
     FM190300 07005KT 6SM BR VCSH SCT009 OVC015=



000
FTUS44 KHGX 181341 AAA
TAFLBX
TAF AMD
KLBX 181341Z 1814/1912 12005KT P6SM VCSH BKN035 BKN045 OVC060
      TEMPO 1814/1818 2SM SHRA BR BKN007
     FM181800 19007KT P6SM VCSH SCT010 BKN020
     FM190100 07005KT 6SM BR VCSH SCT009 BKN012
     FM190600 07006KT 4SM BR VCSH OVC009=



000
FTUS44 KHGX 181341 AAA
TAFLBX
TAF AMD
KLBX 181341Z 1814/1912 12005KT P6SM VCSH BKN035 BKN045 OVC060
      TEMPO 1814/1818 2SM SHRA BR BKN007
     FM181800 19007KT P6SM VCSH SCT010 BKN020
     FM190100 07005KT 6SM BR VCSH SCT009 BKN012
     FM190600 07006KT 4SM BR VCSH OVC009=



000
FTUS44 KHGX 181339 AAA
TAFSGR
TAF AMD
KSGR 181339Z 1814/1912 03006KT 6SM BR VCSH BKN005 OVC011
      TEMPO 1814/1818 3SM -RA BR OVC005
     FM181800 06006KT P6SM VCSH SCT010 BKN020
     FM190000 04005KT 6SM BR VCSH SCT009 BKN012
     FM190600 06006KT 5SM SHRA BR OVC009=



000
FTUS44 KHGX 181339 AAA
TAFSGR
TAF AMD
KSGR 181339Z 1814/1912 03006KT 6SM BR VCSH BKN005 OVC011
      TEMPO 1814/1818 3SM -RA BR OVC005
     FM181800 06006KT P6SM VCSH SCT010 BKN020
     FM190000 04005KT 6SM BR VCSH SCT009 BKN012
     FM190600 06006KT 5SM SHRA BR OVC009=



000
FTUS44 KHGX 181339 AAA
TAFSGR
TAF AMD
KSGR 181339Z 1814/1912 03006KT 6SM BR VCSH BKN005 OVC011
      TEMPO 1814/1818 3SM -RA BR OVC005
     FM181800 06006KT P6SM VCSH SCT010 BKN020
     FM190000 04005KT 6SM BR VCSH SCT009 BKN012
     FM190600 06006KT 5SM SHRA BR OVC009=



000
FTUS44 KHGX 181339 AAA
TAFSGR
TAF AMD
KSGR 181339Z 1814/1912 03006KT 6SM BR VCSH BKN005 OVC011
      TEMPO 1814/1818 3SM -RA BR OVC005
     FM181800 06006KT P6SM VCSH SCT010 BKN020
     FM190000 04005KT 6SM BR VCSH SCT009 BKN012
     FM190600 06006KT 5SM SHRA BR OVC009=



000
FTUS44 KHGX 181338 AAA
TAFHOU
TAF AMD
KHOU 181338Z 1814/1912 05006KT P6SM VCSH BKN005 BKN020 OVC040
      TEMPO 1814/1818 6SM -RA BR OVC005
     FM181800 06006KT P6SM VCSH SCT010 BKN015
     FM190000 07006KT P6SM VCSH SCT006 OVC015
     FM190600 07006KT 5SM SHRA BR OVC009=



000
FTUS44 KHGX 181338 AAA
TAFHOU
TAF AMD
KHOU 181338Z 1814/1912 05006KT P6SM VCSH BKN005 BKN020 OVC040
      TEMPO 1814/1818 6SM -RA BR OVC005
     FM181800 06006KT P6SM VCSH SCT010 BKN015
     FM190000 07006KT P6SM VCSH SCT006 OVC015
     FM190600 07006KT 5SM SHRA BR OVC009=



000
FTUS44 KHGX 181338 AAA
TAFHOU
TAF AMD
KHOU 181338Z 1814/1912 05006KT P6SM VCSH BKN005 BKN020 OVC040
      TEMPO 1814/1818 6SM -RA BR OVC005
     FM181800 06006KT P6SM VCSH SCT010 BKN015
     FM190000 07006KT P6SM VCSH SCT006 OVC015
     FM190600 07006KT 5SM SHRA BR OVC009=



000
FTUS44 KHGX 181338 AAA
TAFHOU
TAF AMD
KHOU 181338Z 1814/1912 05006KT P6SM VCSH BKN005 BKN020 OVC040
      TEMPO 1814/1818 6SM -RA BR OVC005
     FM181800 06006KT P6SM VCSH SCT010 BKN015
     FM190000 07006KT P6SM VCSH SCT006 OVC015
     FM190600 07006KT 5SM SHRA BR OVC009=



000
FTUS44 KHGX 181336 AAA
TAFIAH
TAF AMD
KIAH 181336Z 1814/1918 03006KT P6SM BKN003 OVC010
      TEMPO 1814/1816 5SM -RA BR
     FM181600 07006KT P6SM SCT010 BKN020
     FM190000 06006KT P6SM VCSH BKN006 OVC015
     FM190600 06006KT 5SM SHRA BR OVC009=



000
FTUS44 KHGX 181336 AAA
TAFIAH
TAF AMD
KIAH 181336Z 1814/1918 03006KT P6SM BKN003 OVC010
      TEMPO 1814/1816 5SM -RA BR
     FM181600 07006KT P6SM SCT010 BKN020
     FM190000 06006KT P6SM VCSH BKN006 OVC015
     FM190600 06006KT 5SM SHRA BR OVC009=



000
FTUS44 KHGX 181336 AAA
TAFIAH
TAF AMD
KIAH 181336Z 1814/1918 03006KT P6SM BKN003 OVC010
      TEMPO 1814/1816 5SM -RA BR
     FM181600 07006KT P6SM SCT010 BKN020
     FM190000 06006KT P6SM VCSH BKN006 OVC015
     FM190600 06006KT 5SM SHRA BR OVC009=



000
FTUS44 KHGX 181336 AAA
TAFIAH
TAF AMD
KIAH 181336Z 1814/1918 03006KT P6SM BKN003 OVC010
      TEMPO 1814/1816 5SM -RA BR
     FM181600 07006KT P6SM SCT010 BKN020
     FM190000 06006KT P6SM VCSH BKN006 OVC015
     FM190600 06006KT 5SM SHRA BR OVC009=



000
FTUS44 KHGX 181335 AAA
TAFCXO
TAF AMD
KCXO 181335Z 1814/1912 04006KT P6SM OVC006
      TEMPO 1814/1818 OVC004
     FM181800 05006KT P6SM SCT009 BKN015
     FM190000 06006KT P6SM VCSH BKN006 OVC015
     FM190600 06006KT 5SM SHRA BR OVC006=



000
FTUS44 KHGX 181335 AAA
TAFCXO
TAF AMD
KCXO 181335Z 1814/1912 04006KT P6SM OVC006
      TEMPO 1814/1818 OVC004
     FM181800 05006KT P6SM SCT009 BKN015
     FM190000 06006KT P6SM VCSH BKN006 OVC015
     FM190600 06006KT 5SM SHRA BR OVC006=



000
FTUS44 KHGX 181335 AAA
TAFCXO
TAF AMD
KCXO 181335Z 1814/1912 04006KT P6SM OVC006
      TEMPO 1814/1818 OVC004
     FM181800 05006KT P6SM SCT009 BKN015
     FM190000 06006KT P6SM VCSH BKN006 OVC015
     FM190600 06006KT 5SM SHRA BR OVC006=



000
FTUS44 KHGX 181335 AAA
TAFCXO
TAF AMD
KCXO 181335Z 1814/1912 04006KT P6SM OVC006
      TEMPO 1814/1818 OVC004
     FM181800 05006KT P6SM SCT009 BKN015
     FM190000 06006KT P6SM VCSH BKN006 OVC015
     FM190600 06006KT 5SM SHRA BR OVC006=



000
FTUS44 KHGX 181334 AAA
TAFUTS
TAF AMD
KUTS 181334Z 1814/1912 05005KT P6SM OVC008
      TEMPO 1814/1818 6SM BR OVC003
     FM181800 05006KT P6SM SCT009 BKN015
     FM190000 06006KT P6SM VCSH BKN006 OVC015
     FM190600 06006KT 4SM SHRA BR OVC006=



000
FTUS44 KHGX 181334 AAA
TAFUTS
TAF AMD
KUTS 181334Z 1814/1912 05005KT P6SM OVC008
      TEMPO 1814/1818 6SM BR OVC003
     FM181800 05006KT P6SM SCT009 BKN015
     FM190000 06006KT P6SM VCSH BKN006 OVC015
     FM190600 06006KT 4SM SHRA BR OVC006=



000
FTUS44 KHGX 181334 AAA
TAFUTS
TAF AMD
KUTS 181334Z 1814/1912 05005KT P6SM OVC008
      TEMPO 1814/1818 6SM BR OVC003
     FM181800 05006KT P6SM SCT009 BKN015
     FM190000 06006KT P6SM VCSH BKN006 OVC015
     FM190600 06006KT 4SM SHRA BR OVC006=



000
FTUS44 KHGX 181332 AAA
TAFCLL
TAF AMD
KCLL 181332Z 1814/1912 03006KT 6SM BR OVC006
      TEMPO 1814/1818 3SM BR OVC003
     FM181800 02006KT P6SM SCT009 BKN015
     FM190000 03005KT 6SM BR VCSH SCT009 BKN012
     FM190600 03007KT 4SM SHRA BR OVC006=



000
FTUS44 KHGX 181332 AAA
TAFCLL
TAF AMD
KCLL 181332Z 1814/1912 03006KT 6SM BR OVC006
      TEMPO 1814/1818 3SM BR OVC003
     FM181800 02006KT P6SM SCT009 BKN015
     FM190000 03005KT 6SM BR VCSH SCT009 BKN012
     FM190600 03007KT 4SM SHRA BR OVC006=



000
FTUS44 KHGX 181332 AAA
TAFCLL
TAF AMD
KCLL 181332Z 1814/1912 03006KT 6SM BR OVC006
      TEMPO 1814/1818 3SM BR OVC003
     FM181800 02006KT P6SM SCT009 BKN015
     FM190000 03005KT 6SM BR VCSH SCT009 BKN012
     FM190600 03007KT 4SM SHRA BR OVC006=



000
FTUS44 KHGX 181332 AAA
TAFCLL
TAF AMD
KCLL 181332Z 1814/1912 03006KT 6SM BR OVC006
      TEMPO 1814/1818 3SM BR OVC003
     FM181800 02006KT P6SM SCT009 BKN015
     FM190000 03005KT 6SM BR VCSH SCT009 BKN012
     FM190600 03007KT 4SM SHRA BR OVC006=



000
FTUS44 KHGX 181135
TAFCLL
TAF
KCLL 181135Z 1812/1912 02007KT 6SM BR OVC009
     FM181600 02006KT P6SM SCT009 BKN015
     FM190000 03005KT 6SM BR VCSH SCT009 BKN012
     FM190600 03007KT 4SM SHRA BR OVC006=



000
FTUS44 KHGX 181135
TAFSGR
TAF
KSGR 181135Z 1812/1912 06006KT 6SM BR VCSH SCT007 BKN035 OVC080
      TEMPO 1812/1816 3SM -RA BR BKN007 OVC015
     FM181800 07006KT P6SM VCSH SCT010 BKN020
     FM190000 04005KT 6SM BR VCSH SCT009 BKN012
     FM190600 06006KT 5SM SHRA BR OVC009=



000
FTUS44 KHGX 181135
TAFHOU
TAF
KHOU 181135Z 1812/1912 07006KT P6SM VCSH FEW009 BKN025 OVC040
      TEMPO 1812/1815 5SM -RA BR BKN005 BKN018
     FM190000 07006KT P6SM VCSH SCT006 OVC015
     FM190600 07006KT 5SM SHRA BR OVC009=



000
FTUS44 KHGX 181135
TAFUTS
TAF
KUTS 181135Z 1812/1912 06006KT P6SM OVC007
      TEMPO 1812/1814 5SM -RA BR
     FM190000 06006KT P6SM VCSH BKN006 OVC015
     FM190600 06006KT 4SM SHRA BR OVC006=



000
FTUS44 KHGX 181135
TAFIAH
TAF
KIAH 181135Z 1812/1918 04006KT P6SM BKN004 OVC019
      TEMPO 1812/1813 5SM -RA BR
     FM181500 07006KT P6SM SCT010 BKN020
     FM190000 06006KT P6SM VCSH BKN006 OVC015
     FM190600 06006KT 5SM SHRA BR OVC009=



000
FTUS44 KHGX 181135
TAFCXO
TAF
KCXO 181135Z 1812/1912 06006KT P6SM OVC007
      TEMPO 1812/1814 5SM -RA BR
     FM190000 06006KT P6SM VCSH BKN006 OVC015
     FM190600 06006KT 5SM SHRA BR OVC006=



000
FTUS44 KHGX 181135
TAFLBX
TAF
KLBX 181135Z 1812/1912 12005KT 6SM BR VCSH OVC050
      TEMPO 1812/1816 4SM -RA BR BKN007
     FM181600 19007KT P6SM VCSH SCT010 BKN020
     FM190100 07005KT 6SM BR VCSH SCT009 BKN012
     FM190600 07006KT 4SM BR VCSH OVC009=



000
FTUS44 KHGX 181135
TAFGLS
TAF
KGLS 181135Z 1812/1912 11007KT P6SM VCSH SCT060 BKN080
      TEMPO 1812/1816 5SM -RA BR BKN025
     FM181600 13008KT P6SM VCSH SCT010 BKN020
     FM190300 07005KT 6SM BR VCSH SCT009 OVC015=



000
FTUS44 KHGX 181135
TAFSGR
TAF
KSGR 181135Z 1812/1912 06006KT 6SM BR VCSH SCT007 BKN035 OVC080
      TEMPO 1812/1816 3SM -RA BR BKN007 OVC015
     FM181800 07006KT P6SM VCSH SCT010 BKN020
     FM190000 04005KT 6SM BR VCSH SCT009 BKN012
     FM190600 06006KT 5SM SHRA BR OVC009=



000
FTUS44 KHGX 181135
TAFUTS
TAF
KUTS 181135Z 1812/1912 06006KT P6SM OVC007
      TEMPO 1812/1814 5SM -RA BR
     FM190000 06006KT P6SM VCSH BKN006 OVC015
     FM190600 06006KT 4SM SHRA BR OVC006=



000
FTUS44 KHGX 181135
TAFCXO
TAF
KCXO 181135Z 1812/1912 06006KT P6SM OVC007
      TEMPO 1812/1814 5SM -RA BR
     FM190000 06006KT P6SM VCSH BKN006 OVC015
     FM190600 06006KT 5SM SHRA BR OVC006=



000
FTUS44 KHGX 181135
TAFHOU
TAF
KHOU 181135Z 1812/1912 07006KT P6SM VCSH FEW009 BKN025 OVC040
      TEMPO 1812/1815 5SM -RA BR BKN005 BKN018
     FM190000 07006KT P6SM VCSH SCT006 OVC015
     FM190600 07006KT 5SM SHRA BR OVC009=



000
FTUS44 KHGX 181135
TAFGLS
TAF
KGLS 181135Z 1812/1912 11007KT P6SM VCSH SCT060 BKN080
      TEMPO 1812/1816 5SM -RA BR BKN025
     FM181600 13008KT P6SM VCSH SCT010 BKN020
     FM190300 07005KT 6SM BR VCSH SCT009 OVC015=



000
FTUS44 KHGX 181135
TAFIAH
TAF
KIAH 181135Z 1812/1918 04006KT P6SM BKN004 OVC019
      TEMPO 1812/1813 5SM -RA BR
     FM181500 07006KT P6SM SCT010 BKN020
     FM190000 06006KT P6SM VCSH BKN006 OVC015
     FM190600 06006KT 5SM SHRA BR OVC009=



000
FTUS44 KHGX 181135
TAFLBX
TAF
KLBX 181135Z 1812/1912 12005KT 6SM BR VCSH OVC050
      TEMPO 1812/1816 4SM -RA BR BKN007
     FM181600 19007KT P6SM VCSH SCT010 BKN020
     FM190100 07005KT 6SM BR VCSH SCT009 BKN012
     FM190600 07006KT 4SM BR VCSH OVC009=



000
FTUS44 KHGX 181135
TAFCLL
TAF
KCLL 181135Z 1812/1912 02007KT 6SM BR OVC009
     FM181600 02006KT P6SM SCT009 BKN015
     FM190000 03005KT 6SM BR VCSH SCT009 BKN012
     FM190600 03007KT 4SM SHRA BR OVC006=



000
FTUS44 KHGX 180908 AAA
TAFGLS
TAF AMD
KGLS 180908Z 1809/1906 11008KT P6SM VCSH SCT025 OVC100
      TEMPO 1809/1813 5SM -RA BR BKN025
     FM181600 19007KT P6SM VCSH SCT010 BKN020
     FM190300 07005KT 6SM -RA BR SCT009 BKN012=



000
FTUS44 KHGX 180908 AAA
TAFGLS
TAF AMD
KGLS 180908Z 1809/1906 11008KT P6SM VCSH SCT025 OVC100
      TEMPO 1809/1813 5SM -RA BR BKN025
     FM181600 19007KT P6SM VCSH SCT010 BKN020
     FM190300 07005KT 6SM -RA BR SCT009 BKN012=



000
FTUS44 KHGX 180908 AAA
TAFGLS
TAF AMD
KGLS 180908Z 1809/1906 11008KT P6SM VCSH SCT025 OVC100
      TEMPO 1809/1813 5SM -RA BR BKN025
     FM181600 19007KT P6SM VCSH SCT010 BKN020
     FM190300 07005KT 6SM -RA BR SCT009 BKN012=



000
FTUS44 KHGX 180908 AAA
TAFGLS
TAF AMD
KGLS 180908Z 1809/1906 11008KT P6SM VCSH SCT025 OVC100
      TEMPO 1809/1813 5SM -RA BR BKN025
     FM181600 19007KT P6SM VCSH SCT010 BKN020
     FM190300 07005KT 6SM -RA BR SCT009 BKN012=



000
FTUS44 KHGX 180907 AAA
TAFLBX
TAF AMD
KLBX 180907Z 1809/1906 12005KT 4SM BR VCSH FEW007 OVC070
      TEMPO 1809/1813 3SM -RA BR BKN007
     FM181600 19007KT P6SM VCSH SCT010 BKN020
     FM190100 07005KT 6SM -RA BR SCT009 BKN012=



000
FTUS44 KHGX 180907 AAA
TAFLBX
TAF AMD
KLBX 180907Z 1809/1906 12005KT 4SM BR VCSH FEW007 OVC070
      TEMPO 1809/1813 3SM -RA BR BKN007
     FM181600 19007KT P6SM VCSH SCT010 BKN020
     FM190100 07005KT 6SM -RA BR SCT009 BKN012=



000
FTUS44 KHGX 180907 AAA
TAFLBX
TAF AMD
KLBX 180907Z 1809/1906 12005KT 4SM BR VCSH FEW007 OVC070
      TEMPO 1809/1813 3SM -RA BR BKN007
     FM181600 19007KT P6SM VCSH SCT010 BKN020
     FM190100 07005KT 6SM -RA BR SCT009 BKN012=



000
FTUS44 KHGX 180905 AAA
TAFSGR
TAF AMD
KSGR 180905Z 1809/1906 07004KT P6SM VCSH FEW007 SCT040 BKN070
      TEMPO 1809/1813 6SM -RA BR SCT007 OVC015
     FM181800 22006KT P6SM VCSH SCT010 BKN020
     FM190000 04005KT 6SM -RA BR SCT009 BKN012=



000
FTUS44 KHGX 180905 AAA
TAFSGR
TAF AMD
KSGR 180905Z 1809/1906 07004KT P6SM VCSH FEW007 SCT040 BKN070
      TEMPO 1809/1813 6SM -RA BR SCT007 OVC015
     FM181800 22006KT P6SM VCSH SCT010 BKN020
     FM190000 04005KT 6SM -RA BR SCT009 BKN012=



000
FTUS44 KHGX 180905 AAA
TAFSGR
TAF AMD
KSGR 180905Z 1809/1906 07004KT P6SM VCSH FEW007 SCT040 BKN070
      TEMPO 1809/1813 6SM -RA BR SCT007 OVC015
     FM181800 22006KT P6SM VCSH SCT010 BKN020
     FM190000 04005KT 6SM -RA BR SCT009 BKN012=



000
FTUS44 KHGX 180905 AAA
TAFSGR
TAF AMD
KSGR 180905Z 1809/1906 07004KT P6SM VCSH FEW007 SCT040 BKN070
      TEMPO 1809/1813 6SM -RA BR SCT007 OVC015
     FM181800 22006KT P6SM VCSH SCT010 BKN020
     FM190000 04005KT 6SM -RA BR SCT009 BKN012=



000
FTUS44 KHGX 180904 AAA
TAFCLL
TAF AMD
KCLL 180904Z 1809/1906 02007KT P6SM OVC007
     FM181600 02006KT P6SM BKN015
     FM190000 03005KT 6SM BR VCSH SCT009 BKN012=



000
FTUS44 KHGX 180904 AAA
TAFCLL
TAF AMD
KCLL 180904Z 1809/1906 02007KT P6SM OVC007
     FM181600 02006KT P6SM BKN015
     FM190000 03005KT 6SM BR VCSH SCT009 BKN012=



000
FTUS44 KHGX 180904 AAA
TAFCLL
TAF AMD
KCLL 180904Z 1809/1906 02007KT P6SM OVC007
     FM181600 02006KT P6SM BKN015
     FM190000 03005KT 6SM BR VCSH SCT009 BKN012=



000
FTUS44 KHGX 180904 AAA
TAFCLL
TAF AMD
KCLL 180904Z 1809/1906 02007KT P6SM OVC007
     FM181600 02006KT P6SM BKN015
     FM190000 03005KT 6SM BR VCSH SCT009 BKN012=



000
FTUS44 KHGX 180903 AAA
TAFUTS
TAF AMD
KUTS 180903Z 1809/1906 08003KT P6SM OVC011
      TEMPO 1809/1813 5SM -RA BR SCT006 OVC009
     FM181600 02003KT P6SM BKN015
     FM190000 03005KT 6SM BR VCSH SCT009 BKN012=



000
FTUS44 KHGX 180903 AAA
TAFUTS
TAF AMD
KUTS 180903Z 1809/1906 08003KT P6SM OVC011
      TEMPO 1809/1813 5SM -RA BR SCT006 OVC009
     FM181600 02003KT P6SM BKN015
     FM190000 03005KT 6SM BR VCSH SCT009 BKN012=



000
FTUS44 KHGX 180903 AAA
TAFUTS
TAF AMD
KUTS 180903Z 1809/1906 08003KT P6SM OVC011
      TEMPO 1809/1813 5SM -RA BR SCT006 OVC009
     FM181600 02003KT P6SM BKN015
     FM190000 03005KT 6SM BR VCSH SCT009 BKN012=



000
FTUS44 KHGX 180903 AAA
TAFUTS
TAF AMD
KUTS 180903Z 1809/1906 08003KT P6SM OVC011
      TEMPO 1809/1813 5SM -RA BR SCT006 OVC009
     FM181600 02003KT P6SM BKN015
     FM190000 03005KT 6SM BR VCSH SCT009 BKN012=



000
FTUS44 KHGX 180902 AAB
TAFCXO
TAF AMD
KCXO 180902Z 1809/1906 07004KT P6SM VCSH BKN011 OVC017
      TEMPO 1809/1813 4SM -RA BR SCT006 OVC009
     FM181300 07004KT 4SM -RA BR SCT006 OVC009
     FM181700 07003KT P6SM VCSH BKN015
     FM190000 03005KT 6SM BR VCSH SCT009 BKN012=



000
FTUS44 KHGX 180902 AAB
TAFCXO
TAF AMD
KCXO 180902Z 1809/1906 07004KT P6SM VCSH BKN011 OVC017
      TEMPO 1809/1813 4SM -RA BR SCT006 OVC009
     FM181300 07004KT 4SM -RA BR SCT006 OVC009
     FM181700 07003KT P6SM VCSH BKN015
     FM190000 03005KT 6SM BR VCSH SCT009 BKN012=



000
FTUS44 KHGX 180902 AAB
TAFCXO
TAF AMD
KCXO 180902Z 1809/1906 07004KT P6SM VCSH BKN011 OVC017
      TEMPO 1809/1813 4SM -RA BR SCT006 OVC009
     FM181300 07004KT 4SM -RA BR SCT006 OVC009
     FM181700 07003KT P6SM VCSH BKN015
     FM190000 03005KT 6SM BR VCSH SCT009 BKN012=



000
FTUS44 KHGX 180902 AAB
TAFCXO
TAF AMD
KCXO 180902Z 1809/1906 07004KT P6SM VCSH BKN011 OVC017
      TEMPO 1809/1813 4SM -RA BR SCT006 OVC009
     FM181300 07004KT 4SM -RA BR SCT006 OVC009
     FM181700 07003KT P6SM VCSH BKN015
     FM190000 03005KT 6SM BR VCSH SCT009 BKN012=



000
FTUS44 KHGX 180900 AAA
TAFHOU
TAF AMD
KHOU 180900Z 1809/1906 09005KT P6SM VCSH SCT017 BKN023
      TEMPO 1809/1813 5SM RA BR SCT006 OVC009
     FM181300 11005KT 5SM -RA BR SCT007 OVC009
     FM181900 19006KT P6SM VCSH SCT010 BKN020
     FM190000 07005KT 6SM -RA BR SCT009 BKN012=



000
FTUS44 KHGX 180900 AAA
TAFHOU
TAF AMD
KHOU 180900Z 1809/1906 09005KT P6SM VCSH SCT017 BKN023
      TEMPO 1809/1813 5SM RA BR SCT006 OVC009
     FM181300 11005KT 5SM -RA BR SCT007 OVC009
     FM181900 19006KT P6SM VCSH SCT010 BKN020
     FM190000 07005KT 6SM -RA BR SCT009 BKN012=



000
FTUS44 KHGX 180900 AAA
TAFHOU
TAF AMD
KHOU 180900Z 1809/1906 09005KT P6SM VCSH SCT017 BKN023
      TEMPO 1809/1813 5SM RA BR SCT006 OVC009
     FM181300 11005KT 5SM -RA BR SCT007 OVC009
     FM181900 19006KT P6SM VCSH SCT010 BKN020
     FM190000 07005KT 6SM -RA BR SCT009 BKN012=



000
FTUS44 KHGX 180900 AAA
TAFHOU
TAF AMD
KHOU 180900Z 1809/1906 09005KT P6SM VCSH SCT017 BKN023
      TEMPO 1809/1813 5SM RA BR SCT006 OVC009
     FM181300 11005KT 5SM -RA BR SCT007 OVC009
     FM181900 19006KT P6SM VCSH SCT010 BKN020
     FM190000 07005KT 6SM -RA BR SCT009 BKN012=



000
FTUS44 KHGX 180859 AAA
TAFIAH
TAF AMD
KIAH 180859Z 1809/1912 06005KT P6SM -RA OVC011
      TEMPO 1809/1813 5SM RA BR SCT006 OVC009
     FM181800 07006KT P6SM VCSH BKN020
     FM190000 05005KT P6SM -RA SCT009 BKN012
     FM190600 06005KT 6SM RA BR BKN009=



000
FTUS44 KHGX 180859 AAA
TAFIAH
TAF AMD
KIAH 180859Z 1809/1912 06005KT P6SM -RA OVC011
      TEMPO 1809/1813 5SM RA BR SCT006 OVC009
     FM181800 07006KT P6SM VCSH BKN020
     FM190000 05005KT P6SM -RA SCT009 BKN012
     FM190600 06005KT 6SM RA BR BKN009=



000
FTUS44 KHGX 180859 AAA
TAFIAH
TAF AMD
KIAH 180859Z 1809/1912 06005KT P6SM -RA OVC011
      TEMPO 1809/1813 5SM RA BR SCT006 OVC009
     FM181800 07006KT P6SM VCSH BKN020
     FM190000 05005KT P6SM -RA SCT009 BKN012
     FM190600 06005KT 6SM RA BR BKN009=



000
FTUS44 KHGX 180859 AAA
TAFIAH
TAF AMD
KIAH 180859Z 1809/1912 06005KT P6SM -RA OVC011
      TEMPO 1809/1813 5SM RA BR SCT006 OVC009
     FM181800 07006KT P6SM VCSH BKN020
     FM190000 05005KT P6SM -RA SCT009 BKN012
     FM190600 06005KT 6SM RA BR BKN009=



000
FTUS44 KHGX 180807 AAA
TAFCXO
TAF AMD
KCXO 180807Z 1808/1906 14004KT P6SM VCSH FEW013 BKN060
      TEMPO 1808/1812 4SM -RA BR SCT006 OVC019
     FM181200 14004KT 4SM -RA BR SCT006 OVC009
     FM181700 07003KT P6SM VCSH BKN015
     FM190000 03005KT 6SM BR VCSH SCT009 BKN012=



000
FTUS44 KHGX 180807 AAA
TAFCXO
TAF AMD
KCXO 180807Z 1808/1906 14004KT P6SM VCSH FEW013 BKN060
      TEMPO 1808/1812 4SM -RA BR SCT006 OVC019
     FM181200 14004KT 4SM -RA BR SCT006 OVC009
     FM181700 07003KT P6SM VCSH BKN015
     FM190000 03005KT 6SM BR VCSH SCT009 BKN012=



000
FTUS44 KHGX 180807 AAA
TAFCXO
TAF AMD
KCXO 180807Z 1808/1906 14004KT P6SM VCSH FEW013 BKN060
      TEMPO 1808/1812 4SM -RA BR SCT006 OVC019
     FM181200 14004KT 4SM -RA BR SCT006 OVC009
     FM181700 07003KT P6SM VCSH BKN015
     FM190000 03005KT 6SM BR VCSH SCT009 BKN012=



000
FTUS44 KHGX 180807 AAA
TAFCXO
TAF AMD
KCXO 180807Z 1808/1906 14004KT P6SM VCSH FEW013 BKN060
      TEMPO 1808/1812 4SM -RA BR SCT006 OVC019
     FM181200 14004KT 4SM -RA BR SCT006 OVC009
     FM181700 07003KT P6SM VCSH BKN015
     FM190000 03005KT 6SM BR VCSH SCT009 BKN012=



000
FTUS44 KHGX 180531
TAFLBX
TAF
KLBX 180531Z 1806/1906 12007KT P6SM VCSH SCT025 OVC040
     FM180900 12006KT 6SM BR VCSH SCT007 OVC020
     FM181600 19007KT P6SM VCSH SCT010 BKN020
     FM190100 07005KT 6SM -RA BR SCT009 BKN012=



000
FTUS44 KHGX 180531
TAFCXO
TAF
KCXO 180531Z 1806/1906 12004KT P6SM VCSH OVC012
     FM180800 14004KT 4SM -RA BR SCT006 OVC009
     FM181700 07003KT P6SM VCSH BKN015
     FM190000 03005KT 6SM BR VCSH SCT009 BKN012=



000
FTUS44 KHGX 180531
TAFCLL
TAF
KCLL 180531Z 1806/1906 VRB04KT P6SM VCSH OVC012
     FM180900 03004KT 5SM -RA BR SCT006 OVC009
     FM181600 02006KT P6SM BKN015
     FM190000 03005KT 6SM BR VCSH SCT009 BKN012=



000
FTUS44 KHGX 180531
TAFIAH
TAF
KIAH 180531Z 1806/1912 11007KT P6SM VCSH SCT009 OVC013
     FM180900 12005KT 5SM -RA BR SCT004 OVC009
     FM181800 07006KT P6SM VCSH BKN020
     FM190000 05005KT P6SM -RA SCT009 BKN012
     FM190600 06005KT 6SM RA BR BKN009=



000
FTUS44 KHGX 180531
TAFUTS
TAF
KUTS 180531Z 1806/1906 VRB03KT P6SM VCSH OVC012
     FM180900 14003KT 5SM -RA BR SCT006 OVC009
     FM181600 02003KT P6SM BKN015
     FM190000 03005KT 6SM BR VCSH SCT009 BKN012=



000
FTUS44 KHGX 180531
TAFHOU
TAF
KHOU 180531Z 1806/1906 10006KT P6SM VCSH SCT012 BKN035
      TEMPO 1806/1810 BKN012 BKN025
     FM181000 11005KT 5SM -RA BR SCT007 OVC009
     FM181900 19006KT P6SM VCSH SCT010 BKN020
     FM190000 07005KT 6SM -RA BR SCT009 BKN012=



000
FTUS44 KHGX 180531
TAFGLS
TAF
KGLS 180531Z 1806/1906 11008KT P6SM VCSH SCT025 OVC035
      TEMPO 1806/1809 BKN025
     FM180900 12007KT P6SM VCSH SCT007 OVC015
     FM181600 19007KT P6SM VCSH SCT010 BKN020
     FM190300 07005KT 6SM -RA BR SCT009 BKN012=



000
FTUS44 KHGX 180531
TAFSGR
TAF
KSGR 180531Z 1806/1906 10006KT P6SM VCSH SCT015 SCT025
      TEMPO 1806/1809 BKN015 BKN025
     FM180900 10006KT 6SM -RA BR SCT007 OVC015
     FM181800 22006KT P6SM VCSH SCT010 BKN020
     FM190000 04005KT 6SM -RA BR SCT009 BKN012=



000
FTUS44 KHGX 180531
TAFCLL
TAF
KCLL 180531Z 1806/1906 VRB04KT P6SM VCSH OVC012
     FM180900 03004KT 5SM -RA BR SCT006 OVC009
     FM181600 02006KT P6SM BKN015
     FM190000 03005KT 6SM BR VCSH SCT009 BKN012=



000
FTUS44 KHGX 180531
TAFIAH
TAF
KIAH 180531Z 1806/1912 11007KT P6SM VCSH SCT009 OVC013
     FM180900 12005KT 5SM -RA BR SCT004 OVC009
     FM181800 07006KT P6SM VCSH BKN020
     FM190000 05005KT P6SM -RA SCT009 BKN012
     FM190600 06005KT 6SM RA BR BKN009=



000
FTUS44 KHGX 180531
TAFCXO
TAF
KCXO 180531Z 1806/1906 12004KT P6SM VCSH OVC012
     FM180800 14004KT 4SM -RA BR SCT006 OVC009
     FM181700 07003KT P6SM VCSH BKN015
     FM190000 03005KT 6SM BR VCSH SCT009 BKN012=



000
FTUS44 KHGX 180531
TAFGLS
TAF
KGLS 180531Z 1806/1906 11008KT P6SM VCSH SCT025 OVC035
      TEMPO 1806/1809 BKN025
     FM180900 12007KT P6SM VCSH SCT007 OVC015
     FM181600 19007KT P6SM VCSH SCT010 BKN020
     FM190300 07005KT 6SM -RA BR SCT009 BKN012=



000
FTUS44 KHGX 180531
TAFHOU
TAF
KHOU 180531Z 1806/1906 10006KT P6SM VCSH SCT012 BKN035
      TEMPO 1806/1810 BKN012 BKN025
     FM181000 11005KT 5SM -RA BR SCT007 OVC009
     FM181900 19006KT P6SM VCSH SCT010 BKN020
     FM190000 07005KT 6SM -RA BR SCT009 BKN012=



000
FTUS44 KHGX 180531
TAFSGR
TAF
KSGR 180531Z 1806/1906 10006KT P6SM VCSH SCT015 SCT025
      TEMPO 1806/1809 BKN015 BKN025
     FM180900 10006KT 6SM -RA BR SCT007 OVC015
     FM181800 22006KT P6SM VCSH SCT010 BKN020
     FM190000 04005KT 6SM -RA BR SCT009 BKN012=



000
FTUS44 KHGX 180531
TAFLBX
TAF
KLBX 180531Z 1806/1906 12007KT P6SM VCSH SCT025 OVC040
     FM180900 12006KT 6SM BR VCSH SCT007 OVC020
     FM181600 19007KT P6SM VCSH SCT010 BKN020
     FM190100 07005KT 6SM -RA BR SCT009 BKN012=



000
FTUS44 KHGX 180531
TAFUTS
TAF
KUTS 180531Z 1806/1906 VRB03KT P6SM VCSH OVC012
     FM180900 14003KT 5SM -RA BR SCT006 OVC009
     FM181600 02003KT P6SM BKN015
     FM190000 03005KT 6SM BR VCSH SCT009 BKN012=



000
FTUS44 KHGX 180305 AAB
TAFIAH
TAF AMD
KIAH 180305Z 1803/1906 12007KT P6SM VCSH SCT009 OVC013
     FM180900 12005KT 5SM -RA BR SCT004 OVC009
     FM181800 18006KT P6SM VCSH BKN025
     FM190000 03005KT P6SM -RA SCT010 BKN015=



000
FTUS44 KHGX 180305 AAA
TAFUTS
TAF AMD
KUTS 180305Z 1803/1824 VRB03KT P6SM VCSH OVC015
     FM180900 14003KT 5SM -RA BR SCT006 OVC015
     FM181600 02003KT P6SM VCSH BKN025=



000
FTUS44 KHGX 180305 AAA
TAFCLL
TAF AMD
KCLL 180305Z 1803/1824 10006KT P6SM VCSH SCT020 OVC060
      TEMPO 1803/1806 BKN020
     FM180900 03004KT 5SM -RA BR SCT006 OVC015
     FM181600 02003KT P6SM VCSH BKN025=



000
FTUS44 KHGX 180305 AAB
TAFCXO
TAF AMD
KCXO 180305Z 1803/1824 12004KT P6SM VCSH OVC015
     FM180800 14004KT 3SM -RA BR SCT006 OVC010
     FM181700 02003KT P6SM VCSH BKN025=



000
FTUS44 KHGX 180305 AAA
TAFCLL
TAF AMD
KCLL 180305Z 1803/1824 10006KT P6SM VCSH SCT020 OVC060
      TEMPO 1803/1806 BKN020
     FM180900 03004KT 5SM -RA BR SCT006 OVC015
     FM181600 02003KT P6SM VCSH BKN025=



000
FTUS44 KHGX 180305 AAB
TAFHOU
TAF AMD
KHOU 180305Z 1803/1824 10006KT P6SM BKN015 OVC025
     FM180900 11005KT 6SM -RA BR SCT007 OVC011
     FM181800 19006KT P6SM VCSH SCT010 BKN020=



000
FTUS44 KHGX 180305 AAB
TAFGLS
TAF AMD
KGLS 180305Z 1803/1824 11008KT P6SM BKN025 OVC035
     FM180900 12007KT P6SM VCSH SCT007 OVC015
     FM181600 19007KT P6SM VCSH SCT010 BKN020=



000
FTUS44 KHGX 180305 AAB
TAFGLS
TAF AMD
KGLS 180305Z 1803/1824 11008KT P6SM BKN025 OVC035
     FM180900 12007KT P6SM VCSH SCT007 OVC015
     FM181600 19007KT P6SM VCSH SCT010 BKN020=



000
FTUS44 KHGX 180305 AAA
TAFLBX
TAF AMD
KLBX 180305Z 1803/1824 12007KT P6SM SCT025 OVC040
      TEMPO 1803/1806 BKN025
     FM180900 12006KT 6SM BR VCSH SCT007 OVC015
     FM181600 19007KT P6SM VCSH SCT010 BKN020=



000
FTUS44 KHGX 180305 AAB
TAFSGR
TAF AMD
KSGR 180305Z 1803/1824 11006KT P6SM SCT015 OVC025
      TEMPO 1803/1806 BKN015
     FM180900 10006KT 6SM -RA BR SCT007 OVC015
     FM181800 22006KT P6SM VCSH SCT010 BKN020=



000
FTUS44 KHGX 180305 AAB
TAFCXO
TAF AMD
KCXO 180305Z 1803/1824 12004KT P6SM VCSH OVC015
     FM180800 14004KT 3SM -RA BR SCT006 OVC010
     FM181700 02003KT P6SM VCSH BKN025=



000
FTUS44 KHGX 180305 AAB
TAFIAH
TAF AMD
KIAH 180305Z 1803/1906 12007KT P6SM VCSH SCT009 OVC013
     FM180900 12005KT 5SM -RA BR SCT004 OVC009
     FM181800 18006KT P6SM VCSH BKN025
     FM190000 03005KT P6SM -RA SCT010 BKN015=



000
FTUS44 KHGX 180305 AAB
TAFHOU
TAF AMD
KHOU 180305Z 1803/1824 10006KT P6SM BKN015 OVC025
     FM180900 11005KT 6SM -RA BR SCT007 OVC011
     FM181800 19006KT P6SM VCSH SCT010 BKN020=



000
FTUS44 KHGX 180305 AAB
TAFSGR
TAF AMD
KSGR 180305Z 1803/1824 11006KT P6SM SCT015 OVC025
      TEMPO 1803/1806 BKN015
     FM180900 10006KT 6SM -RA BR SCT007 OVC015
     FM181800 22006KT P6SM VCSH SCT010 BKN020=



000
FTUS44 KHGX 180305 AAA
TAFUTS
TAF AMD
KUTS 180305Z 1803/1824 VRB03KT P6SM VCSH OVC015
     FM180900 14003KT 5SM -RA BR SCT006 OVC015
     FM181600 02003KT P6SM VCSH BKN025=



000
FTUS44 KHGX 180305 AAA
TAFLBX
TAF AMD
KLBX 180305Z 1803/1824 12007KT P6SM SCT025 OVC040
      TEMPO 1803/1806 BKN025
     FM180900 12006KT 6SM BR VCSH SCT007 OVC015
     FM181600 19007KT P6SM VCSH SCT010 BKN020=



000
FTUS44 KHGX 180023 AAA
TAFIAH
TAF AMD
KIAH 180023Z 1800/1906 12011KT P6SM VCSH OVC025
     FM180200 12007KT P6SM VCSH OVC025
     FM180600 12006KT 6SM BR VCSH SCT009 OVC015
     FM180900 12005KT 5SM -RA BR SCT004 OVC009
     FM181800 18006KT P6SM VCSH BKN025
     FM190000 03005KT P6SM -RA SCT010 BKN015=



000
FTUS44 KHGX 180023 AAA
TAFGLS
TAF AMD
KGLS 180023Z 1800/1824 11008KT P6SM BKN025 OVC045
     FM180900 12007KT P6SM VCSH SCT007 OVC015
     FM181600 19007KT P6SM VCSH SCT010 BKN020=



000
FTUS44 KHGX 180023 AAA
TAFIAH
TAF AMD
KIAH 180023Z 1800/1906 12011KT P6SM VCSH OVC025
     FM180200 12007KT P6SM VCSH OVC025
     FM180600 12006KT 6SM BR VCSH SCT009 OVC015
     FM180900 12005KT 5SM -RA BR SCT004 OVC009
     FM181800 18006KT P6SM VCSH BKN025
     FM190000 03005KT P6SM -RA SCT010 BKN015=



000
FTUS44 KHGX 180023 AAA
TAFCXO
TAF AMD
KCXO 180023Z 1800/1824 10004KT P6SM VCSH BKN025 OVC045
     FM180800 14004KT 3SM -RA BR SCT006 OVC010
     FM181700 02003KT P6SM VCSH BKN025=



000
FTUS44 KHGX 180023 AAA
TAFGLS
TAF AMD
KGLS 180023Z 1800/1824 11008KT P6SM BKN025 OVC045
     FM180900 12007KT P6SM VCSH SCT007 OVC015
     FM181600 19007KT P6SM VCSH SCT010 BKN020=



000
FTUS44 KHGX 180023 AAA
TAFSGR
TAF AMD
KSGR 180023Z 1800/1824 12008KT P6SM VCSH BKN025 OVC060
      TEMPO 1800/1802 6SM -RA OVC015
     FM180200 11006KT P6SM BKN015 OVC025
     FM180900 10006KT 6SM -RA BR SCT007 OVC015
     FM181800 22006KT P6SM VCSH SCT010 BKN020=



000
FTUS44 KHGX 180023 AAA
TAFCXO
TAF AMD
KCXO 180023Z 1800/1824 10004KT P6SM VCSH BKN025 OVC045
     FM180800 14004KT 3SM -RA BR SCT006 OVC010
     FM181700 02003KT P6SM VCSH BKN025=



000
FTUS44 KHGX 180023 AAA
TAFSGR
TAF AMD
KSGR 180023Z 1800/1824 12008KT P6SM VCSH BKN025 OVC060
      TEMPO 1800/1802 6SM -RA OVC015
     FM180200 11006KT P6SM BKN015 OVC025
     FM180900 10006KT 6SM -RA BR SCT007 OVC015
     FM181800 22006KT P6SM VCSH SCT010 BKN020=



000
FTUS44 KHGX 180023 AAA
TAFHOU
TAF AMD
KHOU 180023Z 1800/1824 11013KT P6SM BKN015 BKN025 OVC060
     FM180200 10006KT P6SM BKN015 OVC025
     FM180900 11005KT 6SM -RA BR SCT007 OVC011
     FM181800 19006KT P6SM VCSH SCT010 BKN020=



000
FTUS44 KHGX 180023 AAA
TAFHOU
TAF AMD
KHOU 180023Z 1800/1824 11013KT P6SM BKN015 BKN025 OVC060
     FM180200 10006KT P6SM BKN015 OVC025
     FM180900 11005KT 6SM -RA BR SCT007 OVC011
     FM181800 19006KT P6SM VCSH SCT010 BKN020=



000
FTUS44 KHGX 172335 CCA
TAFSGR
TAF COR
KSGR 172335Z 1800/1824 12008KT P6SM VCSH BKN025 OVC060
      TEMPO 1800/1802 -RA
     FM180200 11006KT P6SM BKN025 OVC045
     FM180900 10006KT 6SM -RA BR SCT007 OVC015
     FM181800 22006KT P6SM VCSH SCT010 BKN020=



000
FTUS44 KHGX 172335 CCA
TAFSGR
TAF COR
KSGR 172335Z 1800/1824 12008KT P6SM VCSH BKN025 OVC060
      TEMPO 1800/1802 -RA
     FM180200 11006KT P6SM BKN025 OVC045
     FM180900 10006KT 6SM -RA BR SCT007 OVC015
     FM181800 22006KT P6SM VCSH SCT010 BKN020=



000
FTUS44 KHGX 172334 CCA
TAFCLL
TAF COR
KCLL 172334Z 1800/1824 13006KT P6SM VCSH BKN025 OVC045
     FM180900 03004KT 5SM -RA BR SCT006 OVC015
     FM181600 02003KT P6SM VCSH BKN025=



000
FTUS44 KHGX 172334 CCA
TAFCLL
TAF COR
KCLL 172334Z 1800/1824 13006KT P6SM VCSH BKN025 OVC045
     FM180900 03004KT 5SM -RA BR SCT006 OVC015
     FM181600 02003KT P6SM VCSH BKN025=



000
FTUS44 KHGX 172331
TAFGLS
TAF
KGLS 172331Z 1800/1824 09010KT P6SM BKN080 OVC100
     FM180300 11008KT P6SM BKN025 OVC045
     FM180900 12007KT P6SM VCSH SCT007 OVC015
     FM181600 19007KT P6SM VCSH SCT010 BKN020=



000
FTUS44 KHGX 172331
TAFLBX
TAF
KLBX 172331Z 1800/1824 11010KT P6SM BKN027 BKN035
     FM180200 12007KT P6SM BKN025 OVC035
     FM180900 12006KT 6SM BR VCSH SCT007 OVC015
     FM181600 19007KT P6SM VCSH SCT010 BKN020=



000
FTUS44 KHGX 172331
TAFIAH
TAF
KIAH 172331Z 1800/1906 12011KT P6SM VCSH SCT025 SCT040 OVC090
     FM180200 12007KT P6SM VCSH BKN025 OVC045
     FM180600 12006KT 6SM BR VCSH SCT009 OVC015
     FM180900 12005KT 5SM -RA BR SCT004 OVC009
     FM181800 18006KT P6SM VCSH BKN025
     FM190000 03005KT P6SM -RA SCT010 BKN015=



000
FTUS44 KHGX 172331
TAFCLL
TAF
KCLL 172331Z 1800/1824 12008KT P6SM VCSH BKN060 OVC080
     FM180400 13006KT P6SM VCSH BKN025 OVC045
     FM180900 03004KT 5SM -RA BR SCT006 OVC015
     FM181600 02003KT P6SM VCSH BKN025=



000
FTUS44 KHGX 172331
TAFIAH
TAF
KIAH 172331Z 1800/1906 12011KT P6SM VCSH SCT025 SCT040 OVC090
     FM180200 12007KT P6SM VCSH BKN025 OVC045
     FM180600 12006KT 6SM BR VCSH SCT009 OVC015
     FM180900 12005KT 5SM -RA BR SCT004 OVC009
     FM181800 18006KT P6SM VCSH BKN025
     FM190000 03005KT P6SM -RA SCT010 BKN015=



000
FTUS44 KHGX 172331
TAFUTS
TAF
KUTS 172331Z 1800/1824 10003KT P6SM VCSH BKN050 OVC080
      TEMPO 1800/1802 -RA BKN025
     FM180400 13003KT P6SM VCSH BKN025 OVC045
     FM180900 14003KT 5SM -RA BR SCT006 OVC015
     FM181600 02003KT P6SM VCSH BKN025=



000
FTUS44 KHGX 172331
TAFCLL
TAF
KCLL 172331Z 1800/1824 12008KT P6SM VCSH BKN060 OVC080
     FM180400 13006KT P6SM VCSH BKN025 OVC045
     FM180900 03004KT 5SM -RA BR SCT006 OVC015
     FM181600 02003KT P6SM VCSH BKN025=



000
FTUS44 KHGX 172331
TAFGLS
TAF
KGLS 172331Z 1800/1824 09010KT P6SM BKN080 OVC100
     FM180300 11008KT P6SM BKN025 OVC045
     FM180900 12007KT P6SM VCSH SCT007 OVC015
     FM181600 19007KT P6SM VCSH SCT010 BKN020=



000
FTUS44 KHGX 172331
TAFLBX
TAF
KLBX 172331Z 1800/1824 11010KT P6SM BKN027 BKN035
     FM180200 12007KT P6SM BKN025 OVC035
     FM180900 12006KT 6SM BR VCSH SCT007 OVC015
     FM181600 19007KT P6SM VCSH SCT010 BKN020=



000
FTUS44 KHGX 172331
TAFCXO
TAF
KCXO 172331Z 1800/1824 11007KT P6SM VCSH BKN050 OVC080
     FM180300 13004KT P6SM VCSH BKN025 OVC045
     FM180800 14004KT 3SM -RA BR SCT006 OVC010
     FM181700 02003KT P6SM VCSH BKN025=



000
FTUS44 KHGX 172331
TAFUTS
TAF
KUTS 172331Z 1800/1824 10003KT P6SM VCSH BKN050 OVC080
      TEMPO 1800/1802 -RA BKN025
     FM180400 13003KT P6SM VCSH BKN025 OVC045
     FM180900 14003KT 5SM -RA BR SCT006 OVC015
     FM181600 02003KT P6SM VCSH BKN025=



000
FTUS44 KHGX 172331
TAFCXO
TAF
KCXO 172331Z 1800/1824 11007KT P6SM VCSH BKN050 OVC080
     FM180300 13004KT P6SM VCSH BKN025 OVC045
     FM180800 14004KT 3SM -RA BR SCT006 OVC010
     FM181700 02003KT P6SM VCSH BKN025=



000
FTUS44 KHGX 172331
TAFSGR
TAF
KSGR 172331Z 1800/1824 12008KT P6SM BKN025 OVC060
     FM180200 11006KT P6SM BKN025 OVC045
     FM180900 10006KT 6SM -RA BR SCT007 OVC015
     FM181800 22006KT P6SM VCSH SCT010 BKN020=



000
FTUS44 KHGX 172331
TAFHOU
TAF
KHOU 172331Z 1800/1824 11013KT P6SM SCT015 BKN025 OVC090
     FM180100 10006KT P6SM BKN025 OVC045
     FM180900 11005KT 6SM -RA BR SCT007 OVC011
     FM181800 19006KT P6SM VCSH SCT010 BKN020=



000
FTUS44 KHGX 172331
TAFSGR
TAF
KSGR 172331Z 1800/1824 12008KT P6SM BKN025 OVC060
     FM180200 11006KT P6SM BKN025 OVC045
     FM180900 10006KT 6SM -RA BR SCT007 OVC015
     FM181800 22006KT P6SM VCSH SCT010 BKN020=



000
FTUS44 KHGX 172331
TAFHOU
TAF
KHOU 172331Z 1800/1824 11013KT P6SM SCT015 BKN025 OVC090
     FM180100 10006KT P6SM BKN025 OVC045
     FM180900 11005KT 6SM -RA BR SCT007 OVC011
     FM181800 19006KT P6SM VCSH SCT010 BKN020=



000
FTUS44 KHGX 172211 AAA
TAFLBX
TAF AMD
KLBX 172211Z 1722/1818 11010KT P6SM BKN027 BKN080 OVC100
     FM180200 12007KT P6SM BKN025 OVC045
     FM180900 12006KT 6SM BR VCSH SCT007 OVC015=



000
FTUS44 KHGX 172211 AAA
TAFSGR
TAF AMD
KSGR 172211Z 1722/1818 12008KT P6SM BKN027 OVC060
     FM180200 11006KT P6SM BKN025 OVC045
     FM180900 10006KT 6SM BR VCSH SCT007 OVC015=



000
FTUS44 KHGX 172211 AAB
TAFCLL
TAF AMD
KCLL 172211Z 1722/1818 08008KT P6SM VCTS BKN027 BKN045CB OVC060
     FM180400 13006KT P6SM VCSH BKN025 OVC045
     FM180900 03004KT 5SM -RA BR SCT006 OVC015
     FM181500 20003KT P6SM BKN025=



000
FTUS44 KHGX 172115 AAA
TAFCXO
TAF AMD
KCXO 172115Z 1721/1818 11007KT P6SM VCSH BKN050 OVC100
     FM180300 13004KT P6SM VCSH BKN025 OVC045
     FM180800 14004KT 3SM BR VCSH SCT006 OVC010=



000
FTUS44 KHGX 172115 AAA
TAFCXO
TAF AMD
KCXO 172115Z 1721/1818 11007KT P6SM VCSH BKN050 OVC100
     FM180300 13004KT P6SM VCSH BKN025 OVC045
     FM180800 14004KT 3SM BR VCSH SCT006 OVC010=



000
FTUS44 KHGX 172114 AAA
TAFCLL
TAF AMD
KCLL 172114Z 1721/1818 08008KT P6SM VCTS FEW027 BKN045CB OVC060
     FM180400 13006KT P6SM VCSH BKN025 OVC045
     FM180900 03004KT 5SM -RA BR SCT006 OVC015
     FM181500 20003KT P6SM BKN025=



000
FTUS44 KHGX 172114 AAA
TAFCLL
TAF AMD
KCLL 172114Z 1721/1818 08008KT P6SM VCTS FEW027 BKN045CB OVC060
     FM180400 13006KT P6SM VCSH BKN025 OVC045
     FM180900 03004KT 5SM -RA BR SCT006 OVC015
     FM181500 20003KT P6SM BKN025=



000
FTUS44 KHGX 172114 CCA
TAFIAH
TAF COR
KIAH 172114Z 1721/1824 12011KT P6SM VCSH SCT040 OVC090
     FM180200 12007KT P6SM VCSH BKN025 OVC045
     FM180900 12006KT 6SM BR VCSH BKN009 OVC015
     FM181500 12005KT 5SM -RA BR SCT004 OVC009
     FM181900 20006KT P6SM VCSH BKN025=



000
FTUS44 KHGX 172114 AAA
TAFHOU
TAF AMD
KHOU 172114Z 1721/1818 11013KT P6SM FEW035 BKN090 OVC250
     FM180100 10006KT P6SM BKN025 OVC045
     FM180900 11005KT 6SM BR VCSH SCT007 OVC011=



000
FTUS44 KHGX 172114 CCA
TAFIAH
TAF COR
KIAH 172114Z 1721/1824 12011KT P6SM VCSH SCT040 OVC090
     FM180200 12007KT P6SM VCSH BKN025 OVC045
     FM180900 12006KT 6SM BR VCSH BKN009 OVC015
     FM181500 12005KT 5SM -RA BR SCT004 OVC009
     FM181900 20006KT P6SM VCSH BKN025=



000
FTUS44 KHGX 172114 AAA
TAFHOU
TAF AMD
KHOU 172114Z 1721/1818 11013KT P6SM FEW035 BKN090 OVC250
     FM180100 10006KT P6SM BKN025 OVC045
     FM180900 11005KT 6SM BR VCSH SCT007 OVC011=



000
FTUS44 KHGX 172114 AAA
TAFUTS
TAF AMD
KUTS 172114Z 1721/1818 00000KT P6SM VCTS FEW030 SCT050CB OVC060
     FM180400 13003KT P6SM VCSH BKN025 OVC045
     FM180900 14003KT 5SM -RA BR SCT006 OVC015=



000
FTUS44 KHGX 172114 AAA
TAFUTS
TAF AMD
KUTS 172114Z 1721/1818 00000KT P6SM VCTS FEW030 SCT050CB OVC060
     FM180400 13003KT P6SM VCSH BKN025 OVC045
     FM180900 14003KT 5SM -RA BR SCT006 OVC015=



000
FTUS44 KHGX 172113 AAA
TAFIAH
TAF AMD
KIAH 172113Z 1721/1824 12011KT P6SM VCSH SCT040 OVC090
     FM180200 12007KT P6SM VCSH BKN025 OVC045
     FM180900 12006KT 6SM BR VCSH BKN007 OVC015
     FM181500 12005KT 5SM -RA BR SCT004 OVC009
     FM181900 20006KT P6SM VCSH BKN025=



000
FTUS44 KHGX 172113 AAA
TAFIAH
TAF AMD
KIAH 172113Z 1721/1824 12011KT P6SM VCSH SCT040 OVC090
     FM180200 12007KT P6SM VCSH BKN025 OVC045
     FM180900 12006KT 6SM BR VCSH BKN007 OVC015
     FM181500 12005KT 5SM -RA BR SCT004 OVC009
     FM181900 20006KT P6SM VCSH BKN025=



000
FTUS44 KHGX 172113 AAA
TAFIAH
TAF AMD
KIAH 172113Z 1721/1824 12011KT P6SM VCSH SCT040 OVC090
     FM180200 12007KT P6SM VCSH BKN025 OVC045
     FM180900 12006KT 6SM BR VCSH BKN007 OVC015
     FM181500 12005KT 5SM -RA BR SCT004 OVC009
     FM181900 20006KT P6SM VCSH BKN025=



000
FTUS44 KHGX 172113 AAA
TAFIAH
TAF AMD
KIAH 172113Z 1721/1824 12011KT P6SM VCSH SCT040 OVC090
     FM180200 12007KT P6SM VCSH BKN025 OVC045
     FM180900 12006KT 6SM BR VCSH BKN007 OVC015
     FM181500 12005KT 5SM -RA BR SCT004 OVC009
     FM181900 20006KT P6SM VCSH BKN025=



    US Dept of Commerce
    National Oceanic and Atmospheric Administration
    National Weather Service
    1325 East West Highway
    Silver Spring, MD 20910
    Page Author: NWS Internet Services Team
Disclaimer
Information Quality
Credits
Glossary
Privacy Policy
Freedom of Information Act (FOIA)
About Us
Career Opportunities